Wetterdaten: Freitag, 16.09.2022
Datum Zeit Temp. Aussen Temp. o. S. Temp +5cm Feuchte Auss Luftdruck Regen Sonnenschein Regendauer Solar Windben Empfang
16.09.2022 00:00 13,6 C 12,8 C 9,4 C 87 % 1011,2 hPa 0,0 l/m 0 min 0 min 0 W/m 6,4 km/h (2 Bft) 95,65 %
16.09.2022 00:02 13,5 C 12,8 C 9,4 C 87 % 1011,2 hPa 0,0 l/m 0 min 0 min 0 W/m 6,4 km/h (2 Bft) 97,78 %
16.09.2022 00:04 13,5 C 12,8 C 9,4 C 87 % 1011,1 hPa 0,0 l/m 0 min 0 min 0 W/m 6,4 km/h (2 Bft) 97,92 %
16.09.2022 00:08 13,4 C 12,8 C 9,4 C 87 % 1011,2 hPa 0,0 l/m 0 min 0 min 0 W/m 3,2 km/h (1 Bft) 97,56 %
16.09.2022 00:10 13,4 C 12,8 C 9,4 C 87 % 1011,3 hPa 0,0 l/m 0 min 0 min 0 W/m 3,2 km/h (1 Bft) 97,87 %
16.09.2022 00:12 13,4 C 12,8 C 9,4 C 87 % 1011,3 hPa 0,0 l/m 0 min 0 min 0 W/m 3,2 km/h (1 Bft) 95,74 %
16.09.2022 00:14 13,4 C 12,8 C 9,4 C 87 % 1011,4 hPa 0,0 l/m 0 min 0 min 0 W/m 6,4 km/h (2 Bft) 100,00 %
16.09.2022 00:16 13,4 C 12,8 C 9,4 C 87 % 1011,3 hPa 0,0 l/m 0 min 0 min 0 W/m 6,4 km/h (2 Bft) 100,00 %
16.09.2022 00:18 13,4 C 12,8 C 9,4 C 87 % 1011,3 hPa 0,0 l/m 0 min 0 min 0 W/m 6,4 km/h (2 Bft) 100,00 %
16.09.2022 00:20 13,4 C 12,8 C 9,4 C 87 % 1011,3 hPa 0,0 l/m 0 min 0 min 0 W/m 9,7 km/h (2 Bft) 100,00 %
16.09.2022 00:22 13,4 C 12,8 C 9,4 C 87 % 1011,3 hPa 0,0 l/m 0 min 0 min 0 W/m 9,7 km/h (2 Bft) 97,87 %
16.09.2022 00:24 13,4 C 12,8 C 9,4 C 87 % 1011,2 hPa 0,0 l/m 0 min 0 min 0 W/m 6,4 km/h (2 Bft) 97,87 %
16.09.2022 00:26 13,3 C 12,8 C 9,4 C 88 % 1011,3 hPa 0,0 l/m 0 min 0 min 0 W/m 6,4 km/h (2 Bft) 97,83 %
16.09.2022 00:28 13,3 C 12,8 C 9,4 C 88 % 1011,3 hPa 0,0 l/m 0 min 0 min 0 W/m 12,9 km/h (3 Bft) 97,87 %
16.09.2022 00:30 13,3 C 12,8 C 9,4 C 88 % 1011,3 hPa 0,0 l/m 0 min 0 min 0 W/m 6,4 km/h (2 Bft) 97,87 %
16.09.2022 00:32 13,3 C 12,8 C 9,4 C 88 % 1011,2 hPa 0,0 l/m 0 min 0 min 0 W/m 12,9 km/h (3 Bft) 97,87 %
16.09.2022 00:34 13,3 C 12,8 C 9,4 C 88 % 1011,2 hPa 0,0 l/m 0 min 0 min 0 W/m 6,4 km/h (2 Bft) 93,62 %
16.09.2022 00:36 13,3 C 12,8 C 9,4 C 88 % 1011,2 hPa 0,0 l/m 0 min 0 min 0 W/m 6,4 km/h (2 Bft) 98,28 %
16.09.2022 00:38 13,3 C 12,8 C 9,4 C 88 % 1011,2 hPa 0,0 l/m 0 min 0 min 0 W/m 3,2 km/h (1 Bft) 97,14 %
16.09.2022 00:40 13,3 C 12,8 C 9,4 C 88 % 1011,2 hPa 0,0 l/m 0 min 0 min 0 W/m 6,4 km/h (2 Bft) 97,87 %
16.09.2022 00:42 13,3 C 12,8 C 9,4 C 88 % 1011,2 hPa 0,0 l/m 0 min 0 min 0 W/m 6,4 km/h (2 Bft) 97,87 %
16.09.2022 00:44 13,3 C 12,8 C 9,4 C 88 % 1011,2 hPa 0,0 l/m 0 min 0 min 0 W/m 3,2 km/h (1 Bft) 98,18 %
16.09.2022 00:46 13,3 C 12,8 C 9,4 C 88 % 1011,2 hPa 0,0 l/m 0 min 0 min 0 W/m 3,2 km/h (1 Bft) 97,87 %
16.09.2022 00:48 13,3 C 12,8 C 9,4 C 88 % 1011,2 hPa 0,0 l/m 0 min 0 min 0 W/m 3,2 km/h (1 Bft) 95,74 %
16.09.2022 00:50 13,3 C 12,8 C 9,4 C 88 % 1011,2 hPa 0,0 l/m 0 min 0 min 0 W/m 6,4 km/h (2 Bft) 97,87 %
16.09.2022 00:52 13,3 C 12,8 C 9,4 C 88 % 1011,2 hPa 0,0 l/m 0 min 0 min 0 W/m 12,9 km/h (3 Bft) 97,87 %
16.09.2022 00:54 13,3 C 12,8 C 9,4 C 88 % 1011,2 hPa 0,0 l/m 0 min 0 min 0 W/m 6,4 km/h (2 Bft) 97,83 %
16.09.2022 00:56 13,3 C 12,8 C 9,4 C 88 % 1011,2 hPa 0,0 l/m 0 min 0 min 0 W/m 6,4 km/h (2 Bft) 100,00 %
16.09.2022 00:58 13,3 C 12,8 C 9,4 C 88 % 1011,2 hPa 0,0 l/m 0 min 0 min 0 W/m 9,7 km/h (2 Bft) 100,00 %
16.09.2022 01:00 13,2 C 12,8 C 9,4 C 88 % 1011,2 hPa 0,0 l/m 0 min 0 min 0 W/m 9,7 km/h (2 Bft) 100,00 %
16.09.2022 01:02 13,2 C 12,2 C 9,4 C 88 % 1011,2 hPa 0,0 l/m 0 min 0 min 0 W/m 6,4 km/h (2 Bft) 97,87 %
16.09.2022 01:04 13,2 C 12,2 C 9,4 C 88 % 1011,2 hPa 0,0 l/m 0 min 0 min 0 W/m 6,4 km/h (2 Bft) 95,74 %
16.09.2022 01:06 13,2 C 12,2 C 9,4 C 88 % 1011,2 hPa 0,0 l/m 0 min 0 min 0 W/m 6,4 km/h (2 Bft) 100,00 %
16.09.2022 01:08 13,2 C 12,2 C 9,4 C 88 % 1011,2 hPa 0,0 l/m 0 min 0 min 0 W/m 3,2 km/h (1 Bft) 100,00 %
16.09.2022 01:10 13,2 C 12,2 C 9,4 C 88 % 1011,2 hPa 0,0 l/m 0 min 0 min 0 W/m 9,7 km/h (2 Bft) 100,00 %
16.09.2022 01:12 13,2 C 12,2 C 9,4 C 88 % 1011,2 hPa 0,0 l/m 0 min 0 min 0 W/m 6,4 km/h (2 Bft) 100,00 %
16.09.2022 01:14 13,2 C 12,2 C 9,4 C 88 % 1011,2 hPa 0,0 l/m 0 min 0 min 0 W/m 9,7 km/h (2 Bft) 100,00 %
16.09.2022 01:16 13,2 C 12,2 C 9,4 C 88 % 1011,3 hPa 0,0 l/m 0 min 0 min 0 W/m 3,2 km/h (1 Bft) 97,87 %
16.09.2022 01:18 13,2 C 12,2 C 9,4 C 88 % 1011,3 hPa 0,0 l/m 0 min 0 min 0 W/m 6,4 km/h (2 Bft) 100,00 %
16.09.2022 01:20 13,2 C 12,2 C 9,4 C 88 % 1011,3 hPa 0,0 l/m 0 min 0 min 0 W/m 6,4 km/h (2 Bft) 100,00 %
16.09.2022 01:22 13,2 C 12,2 C 9,4 C 88 % 1011,3 hPa 0,0 l/m 0 min 0 min 0 W/m 12,9 km/h (3 Bft) 100,00 %
16.09.2022 01:24 13,2 C 12,2 C 9,4 C 88 % 1011,3 hPa 0,0 l/m 0 min 0 min 0 W/m 12,9 km/h (3 Bft) 100,00 %
16.09.2022 01:26 13,2 C 12,8 C 9,4 C 88 % 1011,2 hPa 0,0 l/m 0 min 0 min 0 W/m 9,7 km/h (2 Bft) 100,00 %
16.09.2022 01:28 13,2 C 12,8 C 9,4 C 88 % 1011,2 hPa 0,0 l/m 0 min 0 min 0 W/m 12,9 km/h (3 Bft) 100,00 %
16.09.2022 01:30 13,1 C 12,8 C 9,4 C 88 % 1011,1 hPa 0,0 l/m 0 min 0 min 0 W/m 12,9 km/h (3 Bft) 100,00 %
16.09.2022 01:32 13,1 C 12,8 C 9,4 C 88 % 1011,0 hPa 0,0 l/m 0 min 0 min 0 W/m 6,4 km/h (2 Bft) 100,00 %
16.09.2022 01:34 13,2 C 12,8 C 9,4 C 88 % 1011,0 hPa 0,0 l/m 0 min 0 min 0 W/m 9,7 km/h (2 Bft) 97,87 %
16.09.2022 01:36 13,2 C 12,8 C 9,4 C 88 % 1010,9 hPa 0,0 l/m 0 min 0 min 0 W/m 6,4 km/h (2 Bft) 100,00 %
16.09.2022 01:38 13,1 C 12,2 C 9,4 C 88 % 1010,9 hPa 0,0 l/m 0 min 0 min 0 W/m 6,4 km/h (2 Bft) 100,00 %
16.09.2022 01:40 13,1 C 12,2 C 9,4 C 88 % 1010,8 hPa 0,0 l/m 0 min 0 min 0 W/m 3,2 km/h (1 Bft) 100,00 %
16.09.2022 01:42 13,1 C 12,2 C 9,4 C 88 % 1010,8 hPa 0,0 l/m 0 min 0 min 0 W/m 3,2 km/h (1 Bft) 100,00 %
16.09.2022 01:44 13,1 C 12,2 C 9,4 C 88 % 1010,8 hPa 0,0 l/m 0 min 0 min 0 W/m 6,4 km/h (2 Bft) 97,87 %
16.09.2022 01:46 13,1 C 12,2 C 9,4 C 88 % 1010,8 hPa 0,0 l/m 0 min 0 min 0 W/m 3,2 km/h (1 Bft) 97,87 %
16.09.2022 01:48 13,1 C 12,2 C 9,4 C 88 % 1010,9 hPa 0,0 l/m 0 min 0 min 0 W/m 3,2 km/h (1 Bft) 97,87 %
16.09.2022 01:50 13,1 C 12,2 C 9,4 C 88 % 1010,9 hPa 0,0 l/m 0 min 0 min 0 W/m 3,2 km/h (1 Bft) 100,00 %
16.09.2022 01:52 13,1 C 12,2 C 9,4 C 88 % 1011,0 hPa 0,0 l/m 0 min 0 min 0 W/m 9,7 km/h (2 Bft) 97,83 %
16.09.2022 01:54 13,1 C 12,2 C 9,4 C 88 % 1011,0 hPa 0,0 l/m 0 min 0 min 0 W/m 6,4 km/h (2 Bft) 97,87 %
16.09.2022 01:56 13,1 C 12,2 C 9,4 C 88 % 1011,0 hPa 0,0 l/m 0 min 0 min 0 W/m 3,2 km/h (1 Bft) 97,87 %
16.09.2022 01:58 13,1 C 12,2 C 9,4 C 88 % 1011,1 hPa 0,0 l/m 0 min 0 min 0 W/m 3,2 km/h (1 Bft) 95,74 %
16.09.2022 02:00 13,1 C 12,2 C 9,4 C 88 % 1011,0 hPa 0,0 l/m 0 min 0 min 0 W/m 6,4 km/h (2 Bft) 97,87 %
16.09.2022 02:02 13,1 C 12,2 C 9,4 C 88 % 1011,0 hPa 0,0 l/m 0 min 0 min 0 W/m 12,9 km/h (3 Bft) 97,87 %
16.09.2022 02:04 13,1 C 12,2 C 9,4 C 88 % 1011,0 hPa 0,0 l/m 0 min 0 min 0 W/m 6,4 km/h (2 Bft) 97,83 %
16.09.2022 02:06 13,1 C 12,2 C 9,4 C 88 % 1011,0 hPa 0,0 l/m 0 min 0 min 0 W/m 3,2 km/h (1 Bft) 95,74 %
16.09.2022 02:08 13,1 C 12,2 C 9,4 C 88 % 1011,0 hPa 0,0 l/m 0 min 0 min 0 W/m 12,9 km/h (3 Bft) 95,74 %
16.09.2022 02:10 13,0 C 12,2 C 9,4 C 88 % 1011,0 hPa 0,0 l/m 0 min 0 min 0 W/m 6,4 km/h (2 Bft) 97,87 %
16.09.2022 02:12 13,0 C 12,2 C 9,4 C 88 % 1011,1 hPa 0,0 l/m 0 min 0 min 0 W/m 9,7 km/h (2 Bft) 97,87 %
16.09.2022 02:14 13,0 C 12,2 C 9,4 C 88 % 1011,1 hPa 0,0 l/m 0 min 0 min 0 W/m 3,2 km/h (1 Bft) 93,62 %
16.09.2022 02:16 13,0 C 12,2 C 8,9 C 88 % 1011,1 hPa 0,0 l/m 0 min 0 min 0 W/m 6,4 km/h (2 Bft) 93,48 %
16.09.2022 02:18 12,9 C 12,2 C 8,9 C 88 % 1011,1 hPa 0,0 l/m 0 min 0 min 0 W/m 3,2 km/h (1 Bft) 95,74 %
16.09.2022 02:20 12,9 C 12,2 C 8,9 C 88 % 1011,2 hPa 0,0 l/m 0 min 0 min 0 W/m 6,4 km/h (2 Bft) 95,74 %
16.09.2022 02:22 12,9 C 12,2 C 8,9 C 88 % 1011,2 hPa 0,0 l/m 0 min 0 min 0 W/m 6,4 km/h (2 Bft) 95,74 %
16.09.2022 02:24 12,9 C 12,2 C 8,9 C 88 % 1011,2 hPa 0,0 l/m 0 min 0 min 0 W/m 6,4 km/h (2 Bft) 93,62 %
16.09.2022 02:26 12,9 C 12,2 C 8,9 C 88 % 1011,2 hPa 0,0 l/m 0 min 0 min 0 W/m 0,0 km/h (0 Bft) 93,62 %
16.09.2022 02:28 12,8 C 11,7 C 8,9 C 88 % 1011,2 hPa 0,0 l/m 0 min 0 min 0 W/m 3,2 km/h (1 Bft) 95,65 %
16.09.2022 02:30 12,8 C 11,7 C 8,9 C 88 % 1011,2 hPa 0,0 l/m 0 min 0 min 0 W/m 6,4 km/h (2 Bft) 93,62 %
16.09.2022 02:32 12,8 C 11,7 C 8,9 C 88 % 1011,2 hPa 0,0 l/m 0 min 0 min 0 W/m 3,2 km/h (1 Bft) 91,49 %
16.09.2022 02:34 12,8 C 11,7 C 8,9 C 88 % 1011,2 hPa 0,0 l/m 0 min 0 min 0 W/m 6,4 km/h (2 Bft) 93,62 %
16.09.2022 02:36 12,8 C 11,7 C 8,9 C 89 % 1011,2 hPa 0,0 l/m 0 min 0 min 0 W/m 3,2 km/h (1 Bft) 93,62 %
16.09.2022 02:38 12,7 C 11,7 C 8,9 C 89 % 1011,2 hPa 0,0 l/m 0 min 0 min 0 W/m 6,4 km/h (2 Bft) 91,49 %
16.09.2022 02:40 12,7 C 11,7 C 8,9 C 89 % 1011,1 hPa 0,0 l/m 0 min 0 min 0 W/m 3,2 km/h (1 Bft) 93,48 %
16.09.2022 02:42 12,7 C 11,7 C 8,9 C 89 % 1011,1 hPa 0,0 l/m 0 min 0 min 0 W/m 3,2 km/h (1 Bft) 95,74 %
16.09.2022 02:44 12,7 C 11,7 C 8,9 C 89 % 1011,1 hPa 0,0 l/m 0 min 0 min 0 W/m 3,2 km/h (1 Bft) 93,62 %
16.09.2022 02:46 12,7 C 11,7 C 8,9 C 89 % 1011,1 hPa 0,0 l/m 0 min 0 min 0 W/m 6,4 km/h (2 Bft) 97,87 %
16.09.2022 02:48 12,6 C 11,7 C 8,9 C 89 % 1011,1 hPa 0,0 l/m 0 min 0 min 0 W/m 3,2 km/h (1 Bft) 97,87 %
16.09.2022 02:50 12,6 C 11,7 C 8,9 C 89 % 1011,1 hPa 0,0 l/m 0 min 0 min 0 W/m 3,2 km/h (1 Bft) 97,87 %
16.09.2022 02:52 12,6 C 11,7 C 8,9 C 89 % 1011,0 hPa 0,0 l/m 0 min 0 min 0 W/m 3,2 km/h (1 Bft) 97,83 %
16.09.2022 02:54 12,6 C 11,7 C 8,9 C 89 % 1011,0 hPa 0,0 l/m 0 min 0 min 0 W/m 3,2 km/h (1 Bft) 97,87 %
16.09.2022 02:56 12,6 C 11,7 C 8,9 C 89 % 1011,1 hPa 0,0 l/m 0 min 0 min 0 W/m 3,2 km/h (1 Bft) 95,74 %
16.09.2022 02:58 12,6 C 11,7 C 8,9 C 89 % 1011,1 hPa 0,0 l/m 0 min 0 min 0 W/m 3,2 km/h (1 Bft) 95,74 %
16.09.2022 03:00 12,6 C 11,7 C 8,9 C 89 % 1011,1 hPa 0,0 l/m 0 min 0 min 0 W/m 3,2 km/h (1 Bft) 97,87 %
16.09.2022 03:02 12,5 C 11,7 C 8,9 C 89 % 1011,1 hPa 0,0 l/m 0 min 0 min 0 W/m 3,2 km/h (1 Bft) 97,87 %
16.09.2022 03:05 12,5 C 11,7 C 8,9 C 89 % 1011,1 hPa 0,0 l/m 0 min 0 min 0 W/m 6,4 km/h (2 Bft) 100,00 %
16.09.2022 03:10 12,5 C 11,7 C 8,9 C 90 % 1011,2 hPa 0,0 l/m 0 min 0 min 0 W/m 6,4 km/h (2 Bft) 97,14 %
16.09.2022 03:12 12,5 C 11,7 C 8,9 C 90 % 1011,1 hPa 0,0 l/m 0 min 0 min 0 W/m 3,2 km/h (1 Bft) 97,87 %
16.09.2022 03:14 12,5 C 11,7 C 8,9 C 90 % 1011,1 hPa 0,0 l/m 0 min 0 min 0 W/m 9,7 km/h (2 Bft) 97,87 %
16.09.2022 03:16 12,5 C 11,7 C 8,9 C 90 % 1011,0 hPa 0,0 l/m 0 min 0 min 0 W/m 6,4 km/h (2 Bft) 97,87 %
16.09.2022 03:18 12,5 C 11,7 C 8,9 C 90 % 1011,0 hPa 0,0 l/m 0 min 0 min 0 W/m 6,4 km/h (2 Bft) 100,00 %
16.09.2022 03:20 12,6 C 11,7 C 8,9 C 90 % 1011,0 hPa 0,0 l/m 0 min 0 min 0 W/m 3,2 km/h (1 Bft) 100,00 %
16.09.2022 03:22 12,6 C 11,7 C 8,9 C 90 % 1011,0 hPa 0,0 l/m 0 min 0 min 0 W/m 3,2 km/h (1 Bft) 100,00 %
16.09.2022 03:24 12,6 C 11,7 C 8,9 C 90 % 1011,0 hPa 0,0 l/m 0 min 0 min 0 W/m 3,2 km/h (1 Bft) 97,87 %
16.09.2022 03:26 12,6 C 11,7 C 8,9 C 90 % 1010,9 hPa 0,0 l/m 0 min 0 min 0 W/m 6,4 km/h (2 Bft) 97,87 %
16.09.2022 03:28 12,6 C 11,7 C 8,9 C 91 % 1011,0 hPa 0,0 l/m 0 min 0 min 0 W/m 3,2 km/h (1 Bft) 100,00 %
16.09.2022 03:30 12,6 C 11,7 C 8,9 C 91 % 1011,0 hPa 0,0 l/m 0 min 0 min 0 W/m 3,2 km/h (1 Bft) 100,00 %
16.09.2022 03:32 12,6 C 12,2 C 8,9 C 91 % 1011,0 hPa 0,0 l/m 0 min 0 min 0 W/m 6,4 km/h (2 Bft) 97,83 %
16.09.2022 03:34 12,6 C 12,2 C 8,9 C 91 % 1011,0 hPa 0,0 l/m 0 min 0 min 0 W/m 6,4 km/h (2 Bft) 100,00 %
16.09.2022 03:36 12,6 C 12,2 C 8,9 C 91 % 1011,0 hPa 0,0 l/m 0 min 0 min 0 W/m 3,2 km/h (1 Bft) 100,00 %
16.09.2022 03:38 12,6 C 12,2 C 8,9 C 91 % 1011,0 hPa 0,0 l/m 0 min 0 min 0 W/m 6,4 km/h (2 Bft) 97,87 %
16.09.2022 03:40 12,6 C 11,7 C 8,9 C 91 % 1011,0 hPa 0,0 l/m 0 min 0 min 0 W/m 6,4 km/h (2 Bft) 100,00 %
16.09.2022 03:42 12,6 C 11,7 C 8,9 C 90 % 1011,0 hPa 0,0 l/m 0 min 0 min 0 W/m 6,4 km/h (2 Bft) 100,00 %
16.09.2022 03:44 12,6 C 12,2 C 8,9 C 90 % 1011,0 hPa 0,0 l/m 0 min 0 min 0 W/m 6,4 km/h (2 Bft) 100,00 %
16.09.2022 03:46 12,6 C 12,2 C 8,9 C 90 % 1011,0 hPa 0,0 l/m 0 min 0 min 0 W/m 6,4 km/h (2 Bft) 100,00 %
16.09.2022 03:48 12,6 C 12,2 C 8,9 C 90 % 1011,0 hPa 0,0 l/m 0 min 0 min 0 W/m 6,4 km/h (2 Bft) 97,87 %
16.09.2022 03:50 12,6 C 12,2 C 8,9 C 90 % 1011,0 hPa 0,0 l/m 0 min 0 min 0 W/m 12,9 km/h (3 Bft) 100,00 %
16.09.2022 03:52 12,6 C 12,2 C 8,9 C 90 % 1011,0 hPa 0,0 l/m 0 min 0 min 0 W/m 6,4 km/h (2 Bft) 100,00 %
16.09.2022 03:54 12,6 C 12,2 C 8,9 C 90 % 1011,0 hPa 0,0 l/m 0 min 0 min 0 W/m 6,4 km/h (2 Bft) 100,00 %
16.09.2022 03:56 12,6 C 12,2 C 8,9 C 90 % 1010,9 hPa 0,0 l/m 0 min 0 min 0 W/m 6,4 km/h (2 Bft) 100,00 %
16.09.2022 03:58 12,6 C 12,2 C 8,9 C 90 % 1010,9 hPa 0,0 l/m 0 min 0 min 0 W/m 6,4 km/h (2 Bft) 97,87 %
16.09.2022 04:00 12,6 C 12,2 C 8,9 C 90 % 1010,9 hPa 0,0 l/m 0 min 0 min 0 W/m 9,7 km/h (2 Bft) 100,00 %
16.09.2022 04:02 12,7 C 12,2 C 8,9 C 90 % 1010,9 hPa 0,0 l/m 0 min 0 min 0 W/m 6,4 km/h (2 Bft) 97,87 %
16.09.2022 04:04 12,7 C 12,2 C 8,9 C 90 % 1010,9 hPa 0,0 l/m 0 min 0 min 0 W/m 6,4 km/h (2 Bft) 97,87 %
16.09.2022 04:06 12,7 C 12,2 C 8,9 C 90 % 1010,8 hPa 0,0 l/m 0 min 0 min 0 W/m 3,2 km/h (1 Bft) 97,87 %
16.09.2022 04:08 12,7 C 12,2 C 8,9 C 90 % 1010,9 hPa 0,0 l/m 0 min 0 min 0 W/m 3,2 km/h (1 Bft) 97,83 %
16.09.2022 04:10 12,7 C 12,2 C 8,9 C 90 % 1010,8 hPa 0,0 l/m 0 min 0 min 0 W/m 6,4 km/h (2 Bft) 100,00 %
16.09.2022 04:12 12,7 C 12,2 C 8,9 C 90 % 1010,8 hPa 0,0 l/m 0 min 2 min 0 W/m 6,4 km/h (2 Bft) 97,87 %
16.09.2022 04:14 12,7 C 12,2 C 8,3 C 90 % 1010,8 hPa 0,0 l/m 0 min 2 min 0 W/m 3,2 km/h (1 Bft) 97,87 %
16.09.2022 04:16 12,7 C 12,2 C 8,3 C 90 % 1010,8 hPa 0,0 l/m 0 min 2 min 0 W/m 6,4 km/h (2 Bft) 97,87 %
16.09.2022 04:18 12,7 C 12,2 C 8,3 C 90 % 1010,7 hPa 0,0 l/m 0 min 2 min 0 W/m 6,4 km/h (2 Bft) 97,87 %
16.09.2022 04:20 12,8 C 12,2 C 8,3 C 91 % 1010,7 hPa 0,0 l/m 0 min 2 min 0 W/m 9,7 km/h (2 Bft) 95,65 %
16.09.2022 04:22 12,8 C 12,2 C 8,3 C 91 % 1010,8 hPa 0,0 l/m 0 min 0 min 0 W/m 3,2 km/h (1 Bft) 95,74 %
16.09.2022 04:24 12,8 C 12,2 C 8,3 C 91 % 1010,8 hPa 0,0 l/m 0 min 0 min 0 W/m 6,4 km/h (2 Bft) 97,87 %
16.09.2022 04:26 12,8 C 11,7 C 8,3 C 91 % 1010,8 hPa 0,0 l/m 0 min 0 min 0 W/m 6,4 km/h (2 Bft) 100,00 %
16.09.2022 04:28 12,7 C 12,2 C 8,3 C 91 % 1010,8 hPa 0,0 l/m 0 min 0 min 0 W/m 3,2 km/h (1 Bft) 94,44 %
16.09.2022 04:30 12,7 C 11,7 C 8,3 C 91 % 1010,8 hPa 0,0 l/m 0 min 0 min 0 W/m 3,2 km/h (1 Bft) 97,87 %
16.09.2022 04:32 12,7 C 11,7 C 8,3 C 91 % 1010,7 hPa 0,0 l/m 0 min 0 min 0 W/m 6,4 km/h (2 Bft) 100,00 %
16.09.2022 04:34 12,7 C 11,7 C 8,3 C 91 % 1010,8 hPa 0,0 l/m 0 min 0 min 0 W/m 3,2 km/h (1 Bft) 100,00 %
16.09.2022 04:36 12,7 C 11,7 C 8,3 C 91 % 1010,7 hPa 0,0 l/m 0 min 0 min 0 W/m 3,2 km/h (1 Bft) 97,83 %
16.09.2022 04:38 12,7 C 11,7 C 8,3 C 91 % 1010,8 hPa 0,0 l/m 0 min 0 min 0 W/m 3,2 km/h (1 Bft) 97,87 %
16.09.2022 04:40 12,7 C 11,7 C 8,3 C 91 % 1010,7 hPa 0,0 l/m 0 min 0 min 0 W/m 6,4 km/h (2 Bft) 97,87 %
16.09.2022 04:42 12,6 C 11,7 C 8,3 C 91 % 1010,7 hPa 0,0 l/m 0 min 0 min 0 W/m 3,2 km/h (1 Bft) 95,74 %
16.09.2022 04:44 12,6 C 11,7 C 8,3 C 91 % 1010,8 hPa 0,0 l/m 0 min 0 min 0 W/m 3,2 km/h (1 Bft) 97,87 %
16.09.2022 04:46 12,6 C 11,7 C 8,3 C 91 % 1010,7 hPa 0,0 l/m 0 min 0 min 0 W/m 3,2 km/h (1 Bft) 95,74 %
16.09.2022 04:48 12,5 C 11,7 C 8,3 C 92 % 1010,7 hPa 0,0 l/m 0 min 0 min 0 W/m 3,2 km/h (1 Bft) 97,83 %
16.09.2022 04:50 12,5 C 11,7 C 8,3 C 91 % 1010,7 hPa 0,0 l/m 0 min 0 min 0 W/m 3,2 km/h (1 Bft) 97,87 %
16.09.2022 04:52 12,4 C 11,7 C 8,3 C 91 % 1010,7 hPa 0,0 l/m 0 min 0 min 0 W/m 6,4 km/h (2 Bft) 97,87 %
16.09.2022 04:54 12,4 C 11,7 C 8,3 C 92 % 1010,7 hPa 0,0 l/m 0 min 0 min 0 W/m 0,0 km/h (0 Bft) 97,87 %
16.09.2022 04:56 12,4 C 11,7 C 8,3 C 92 % 1010,7 hPa 0,0 l/m 0 min 0 min 0 W/m 3,2 km/h (1 Bft) 97,87 %
16.09.2022 04:58 12,4 C 11,7 C 8,3 C 92 % 1010,7 hPa 0,0 l/m 0 min 0 min 0 W/m 0,0 km/h (0 Bft) 95,74 %
16.09.2022 05:00 12,4 C 11,7 C 8,3 C 92 % 1010,7 hPa 0,0 l/m 0 min 0 min 0 W/m 0,0 km/h (0 Bft) 97,83 %
16.09.2022 05:02 12,4 C 11,7 C 8,3 C 92 % 1010,7 hPa 0,0 l/m 0 min 0 min 0 W/m 3,2 km/h (1 Bft) 97,87 %
16.09.2022 05:04 12,4 C 11,7 C 8,3 C 92 % 1010,7 hPa 0,0 l/m 0 min 0 min 0 W/m 0,0 km/h (0 Bft) 97,87 %
16.09.2022 05:06 12,3 C 11,7 C 8,3 C 92 % 1010,7 hPa 0,0 l/m 0 min 0 min 0 W/m 0,0 km/h (0 Bft) 95,74 %
16.09.2022 05:08 12,3 C 11,1 C 8,3 C 92 % 1010,7 hPa 0,0 l/m 0 min 0 min 0 W/m 3,2 km/h (1 Bft) 97,87 %
16.09.2022 05:10 12,3 C 11,1 C 8,3 C 92 % 1010,7 hPa 0,0 l/m 0 min 0 min 0 W/m 3,2 km/h (1 Bft) 98,00 %
16.09.2022 05:12 12,3 C 11,1 C 8,3 C 92 % 1010,7 hPa 0,0 l/m 0 min 0 min 0 W/m 0,0 km/h (0 Bft) 97,92 %
16.09.2022 05:14 12,3 C 11,1 C 8,3 C 92 % 1010,7 hPa 0,0 l/m 0 min 0 min 0 W/m 3,2 km/h (1 Bft) 97,87 %
16.09.2022 05:16 12,2 C 11,1 C 8,3 C 92 % 1010,7 hPa 0,0 l/m 0 min 0 min 0 W/m 3,2 km/h (1 Bft) 97,87 %
16.09.2022 05:18 12,2 C 11,1 C 8,3 C 92 % 1010,7 hPa 0,0 l/m 0 min 0 min 0 W/m 3,2 km/h (1 Bft) 97,87 %
16.09.2022 05:20 12,2 C 11,1 C 8,3 C 92 % 1010,7 hPa 0,0 l/m 0 min 0 min 0 W/m 0,0 km/h (0 Bft) 100,00 %
16.09.2022 05:22 12,2 C 11,1 C 8,3 C 92 % 1010,7 hPa 0,0 l/m 0 min 0 min 0 W/m 3,2 km/h (1 Bft) 100,00 %
16.09.2022 05:24 12,1 C 11,1 C 8,3 C 93 % 1010,7 hPa 0,0 l/m 0 min 0 min 0 W/m 6,4 km/h (2 Bft) 97,87 %
16.09.2022 05:26 12,1 C 11,1 C 8,3 C 93 % 1010,8 hPa 0,0 l/m 0 min 0 min 0 W/m 6,4 km/h (2 Bft) 100,00 %
16.09.2022 05:28 12,1 C 11,1 C 8,3 C 93 % 1010,7 hPa 0,0 l/m 0 min 0 min 0 W/m 16,1 km/h (3 Bft) 100,00 %
16.09.2022 05:30 12,1 C 11,1 C 8,3 C 93 % 1010,7 hPa 0,0 l/m 0 min 0 min 0 W/m 0,0 km/h (0 Bft) 97,87 %
16.09.2022 05:32 12,1 C 11,1 C 8,3 C 93 % 1010,7 hPa 0,0 l/m 0 min 0 min 0 W/m 6,4 km/h (2 Bft) 100,00 %
16.09.2022 05:34 12,1 C 11,1 C 8,3 C 93 % 1010,7 hPa 0,0 l/m 0 min 0 min 0 W/m 6,4 km/h (2 Bft) 97,87 %
16.09.2022 05:36 12,1 C 11,1 C 8,3 C 93 % 1010,7 hPa 0,0 l/m 0 min 0 min 0 W/m 9,7 km/h (2 Bft) 97,87 %
16.09.2022 05:38 12,1 C 11,1 C 8,3 C 93 % 1010,7 hPa 0,0 l/m 0 min 0 min 0 W/m 3,2 km/h (1 Bft) 97,87 %
16.09.2022 05:40 12,1 C 11,1 C 8,3 C 93 % 1010,7 hPa 0,0 l/m 0 min 0 min 0 W/m 3,2 km/h (1 Bft) 95,74 %
16.09.2022 05:42 12,1 C 11,1 C 8,3 C 93 % 1010,7 hPa 0,0 l/m 0 min 0 min 0 W/m 3,2 km/h (1 Bft) 95,74 %
16.09.2022 05:44 12,1 C 11,1 C 8,3 C 93 % 1010,7 hPa 0,0 l/m 0 min 0 min 0 W/m 6,4 km/h (2 Bft) 95,65 %
16.09.2022 05:46 12,0 C 11,1 C 8,3 C 93 % 1010,7 hPa 0,0 l/m 0 min 0 min 0 W/m 6,4 km/h (2 Bft) 95,74 %
16.09.2022 05:48 12,1 C 11,1 C 8,3 C 93 % 1010,7 hPa 0,0 l/m 0 min 2 min 0 W/m 3,2 km/h (1 Bft) 95,74 %
16.09.2022 05:50 12,0 C 11,1 C 8,3 C 93 % 1010,6 hPa 0,0 l/m 0 min 2 min 0 W/m 6,4 km/h (2 Bft) 95,74 %
16.09.2022 05:52 12,0 C 11,1 C 8,3 C 93 % 1010,6 hPa 0,0 l/m 0 min 0 min 0 W/m 6,4 km/h (2 Bft) 95,74 %
16.09.2022 05:54 12,1 C 11,1 C 8,3 C 93 % 1010,6 hPa 0,0 l/m 0 min 0 min 0 W/m 3,2 km/h (1 Bft) 51,16 %
16.09.2022 05:56 12,1 C 11,1 C 8,3 C 93 % 1010,6 hPa 0,0 l/m 0 min 0 min 0 W/m 3,2 km/h (1 Bft) 95,65 %
16.09.2022 05:58 12,1 C 11,1 C 8,3 C 93 % 1010,6 hPa 0,0 l/m 0 min 0 min 0 W/m 3,2 km/h (1 Bft) 95,74 %
16.09.2022 06:00 12,1 C 11,1 C 8,3 C 93 % 1010,5 hPa 0,0 l/m 0 min 0 min 0 W/m 6,4 km/h (2 Bft) 95,74 %
16.09.2022 06:02 12,1 C 11,1 C 8,3 C 94 % 1010,6 hPa 0,0 l/m 0 min 0 min 0 W/m 3,2 km/h (1 Bft) 91,49 %
16.09.2022 06:04 12,1 C 11,1 C 8,3 C 94 % 1010,6 hPa 0,0 l/m 0 min 0 min 0 W/m 9,7 km/h (2 Bft) 95,74 %
16.09.2022 06:08 12,1 C 11,7 C 8,3 C 94 % 1010,5 hPa 0,0 l/m 0 min 0 min 0 W/m 9,7 km/h (2 Bft) 93,90 %
16.09.2022 06:10 12,1 C 11,7 C 8,3 C 94 % 1010,5 hPa 0,0 l/m 0 min 0 min 0 W/m 6,4 km/h (2 Bft) 95,74 %
16.09.2022 06:12 12,0 C 11,7 C 8,3 C 94 % 1010,5 hPa 0,0 l/m 0 min 0 min 0 W/m 6,4 km/h (2 Bft) 95,65 %
16.09.2022 06:14 12,0 C 11,1 C 8,3 C 94 % 1010,5 hPa 0,0 l/m 0 min 0 min 0 W/m 3,2 km/h (1 Bft) 93,62 %
16.09.2022 06:16 12,0 C 11,1 C 8,3 C 94 % 1010,5 hPa 0,0 l/m 0 min 0 min 0 W/m 9,7 km/h (2 Bft) 95,74 %
16.09.2022 06:18 12,0 C 11,1 C 8,3 C 94 % 1010,5 hPa 0,0 l/m 0 min 0 min 0 W/m 6,4 km/h (2 Bft) 97,87 %
16.09.2022 06:20 12,0 C 11,7 C 8,3 C 94 % 1010,6 hPa 0,0 l/m 0 min 0 min 0 W/m 6,4 km/h (2 Bft) 97,87 %
16.09.2022 06:22 12,0 C 11,7 C 8,3 C 94 % 1010,5 hPa 0,0 l/m 0 min 0 min 0 W/m 6,4 km/h (2 Bft) 97,87 %
16.09.2022 06:24 12,0 C 11,7 C 8,3 C 94 % 1010,6 hPa 0,0 l/m 0 min 0 min 0 W/m 6,4 km/h (2 Bft) 97,83 %
16.09.2022 06:26 12,0 C 11,7 C 8,3 C 94 % 1010,5 hPa 0,0 l/m 0 min 0 min 0 W/m 3,2 km/h (1 Bft) 95,74 %
16.09.2022 06:28 12,0 C 11,1 C 8,3 C 94 % 1010,6 hPa 0,0 l/m 0 min 0 min 0 W/m 3,2 km/h (1 Bft) 95,74 %
16.09.2022 06:30 12,0 C 11,1 C 8,3 C 94 % 1010,5 hPa 0,0 l/m 0 min 0 min 0 W/m 3,2 km/h (1 Bft) 100,00 %
16.09.2022 06:32 12,0 C 11,1 C 8,3 C 94 % 1010,5 hPa 0,0 l/m 0 min 0 min 0 W/m 3,2 km/h (1 Bft) 100,00 %
16.09.2022 06:34 11,9 C 11,1 C 8,3 C 94 % 1010,5 hPa 0,0 l/m 0 min 0 min 0 W/m 3,2 km/h (1 Bft) 100,00 %
16.09.2022 06:36 11,9 C 11,1 C 8,3 C 94 % 1010,5 hPa 0,0 l/m 0 min 0 min 0 W/m 6,4 km/h (2 Bft) 98,31 %
16.09.2022 06:38 11,9 C 11,1 C 8,3 C 94 % 1010,5 hPa 0,0 l/m 0 min 0 min 0 W/m 6,4 km/h (2 Bft) 100,00 %
16.09.2022 06:40 11,9 C 11,1 C 8,3 C 94 % 1010,5 hPa 0,0 l/m 0 min 0 min 0 W/m 3,2 km/h (1 Bft) 97,87 %
16.09.2022 06:42 11,9 C 11,1 C 8,3 C 94 % 1010,5 hPa 0,0 l/m 0 min 0 min 0 W/m 3,2 km/h (1 Bft) 100,00 %
16.09.2022 06:44 11,9 C 11,1 C 8,3 C 94 % 1010,5 hPa 0,0 l/m 0 min 0 min 0 W/m 3,2 km/h (1 Bft) 97,87 %
16.09.2022 06:46 11,8 C 11,1 C 8,3 C 94 % 1010,5 hPa 0,0 l/m 0 min 0 min 0 W/m 6,4 km/h (2 Bft) 100,00 %
16.09.2022 06:48 11,8 C 11,1 C 8,3 C 94 % 1010,5 hPa 0,0 l/m 0 min 0 min 0 W/m 6,4 km/h (2 Bft) 100,00 %
16.09.2022 06:50 11,8 C 11,1 C 8,3 C 94 % 1010,5 hPa 0,0 l/m 0 min 0 min 0 W/m 3,2 km/h (1 Bft) 100,00 %
16.09.2022 06:52 11,8 C 11,1 C 8,3 C 94 % 1010,5 hPa 0,0 l/m 0 min 0 min 0 W/m 3,2 km/h (1 Bft) 100,00 %
16.09.2022 06:54 11,8 C 11,1 C 8,3 C 94 % 1010,5 hPa 0,0 l/m 0 min 0 min 0 W/m 6,4 km/h (2 Bft) 100,00 %
16.09.2022 06:56 11,8 C 11,1 C 8,3 C 94 % 1010,5 hPa 0,0 l/m 0 min 0 min 0 W/m 3,2 km/h (1 Bft) 97,87 %
16.09.2022 06:58 11,7 C 11,1 C 8,3 C 93 % 1010,5 hPa 0,0 l/m 0 min 0 min 0 W/m 6,4 km/h (2 Bft) 100,00 %
16.09.2022 07:00 11,7 C 11,1 C 8,3 C 93 % 1010,5 hPa 0,0 l/m 0 min 0 min 0 W/m 6,4 km/h (2 Bft) 100,00 %
16.09.2022 07:02 11,7 C 11,1 C 8,3 C 93 % 1010,4 hPa 0,0 l/m 0 min 0 min 0 W/m 3,2 km/h (1 Bft) 95,74 %
16.09.2022 07:04 11,7 C 11,1 C 8,3 C 93 % 1010,5 hPa 0,0 l/m 0 min 0 min 0 W/m 6,4 km/h (2 Bft) 100,00 %
16.09.2022 07:06 11,7 C 11,1 C 8,3 C 93 % 1010,5 hPa 0,0 l/m 0 min 0 min 0 W/m 9,7 km/h (2 Bft) 98,28 %
16.09.2022 07:08 11,7 C 11,1 C 8,3 C 93 % 1010,5 hPa 0,0 l/m 0 min 0 min 0 W/m 9,7 km/h (2 Bft) 97,22 %
16.09.2022 07:10 11,7 C 11,1 C 8,3 C 93 % 1010,5 hPa 0,0 l/m 0 min 0 min 0 W/m 6,4 km/h (2 Bft) 100,00 %
16.09.2022 07:12 11,7 C 11,1 C 8,3 C 93 % 1010,5 hPa 0,0 l/m 0 min 0 min 0 W/m 6,4 km/h (2 Bft) 100,00 %
16.09.2022 07:14 11,6 C 11,1 C 8,3 C 93 % 1010,5 hPa 0,0 l/m 0 min 0 min 0 W/m 9,7 km/h (2 Bft) 97,87 %
16.09.2022 07:16 11,6 C 11,1 C 8,3 C 93 % 1010,5 hPa 0,0 l/m 0 min 0 min 5 W/m 6,4 km/h (2 Bft) 95,74 %
16.09.2022 07:18 11,7 C 11,1 C 8,3 C 93 % 1010,5 hPa 0,0 l/m 0 min 0 min 6 W/m 6,4 km/h (2 Bft) 95,74 %
16.09.2022 07:20 11,7 C 11,1 C 8,3 C 93 % 1010,5 hPa 0,0 l/m 0 min 0 min 7 W/m 6,4 km/h (2 Bft) 97,87 %
16.09.2022 07:22 11,6 C 11,1 C 8,3 C 93 % 1010,4 hPa 0,0 l/m 0 min 0 min 7 W/m 9,7 km/h (2 Bft) 97,83 %
16.09.2022 07:24 11,6 C 11,1 C 8,3 C 93 % 1010,4 hPa 0,0 l/m 0 min 0 min 9 W/m 9,7 km/h (2 Bft) 97,87 %
16.09.2022 07:26 11,6 C 11,1 C 8,3 C 92 % 1010,5 hPa 0,0 l/m 0 min 0 min 10 W/m 6,4 km/h (2 Bft) 95,74 %
16.09.2022 07:28 11,6 C 11,1 C 8,3 C 92 % 1010,5 hPa 0,0 l/m 0 min 0 min 12 W/m 6,4 km/h (2 Bft) 97,87 %
16.09.2022 07:30 11,6 C 11,1 C 8,3 C 92 % 1010,5 hPa 0,0 l/m 0 min 0 min 12 W/m 6,4 km/h (2 Bft) 97,87 %
16.09.2022 07:32 11,6 C 11,1 C 8,3 C 92 % 1010,5 hPa 0,0 l/m 0 min 0 min 14 W/m 6,4 km/h (2 Bft) 98,11 %
16.09.2022 07:34 11,6 C 11,1 C 8,3 C 92 % 1010,5 hPa 0,0 l/m 0 min 0 min 16 W/m 9,7 km/h (2 Bft) 95,65 %
16.09.2022 07:36 11,7 C 11,1 C 8,3 C 92 % 1010,5 hPa 0,0 l/m 0 min 0 min 17 W/m 6,4 km/h (2 Bft) 95,74 %
16.09.2022 07:38 11,7 C 11,1 C 8,3 C 92 % 1010,5 hPa 0,0 l/m 0 min 0 min 18 W/m 6,4 km/h (2 Bft) 95,74 %
16.09.2022 07:40 11,7 C 11,1 C 8,3 C 92 % 1010,5 hPa 0,0 l/m 0 min 0 min 18 W/m 6,4 km/h (2 Bft) 93,62 %
16.09.2022 07:42 11,7 C 11,1 C 8,3 C 92 % 1010,5 hPa 0,0 l/m 0 min 0 min 19 W/m 12,9 km/h (3 Bft) 95,74 %
16.09.2022 07:44 11,7 C 11,1 C 8,3 C 92 % 1010,6 hPa 0,0 l/m 0 min 0 min 19 W/m 9,7 km/h (2 Bft) 93,62 %
16.09.2022 07:46 11,7 C 11,1 C 8,3 C 92 % 1010,6 hPa 0,0 l/m 0 min 0 min 20 W/m 12,9 km/h (3 Bft) 93,48 %
16.09.2022 07:48 11,7 C 11,1 C 8,3 C 91 % 1010,6 hPa 0,0 l/m 0 min 0 min 22 W/m 6,4 km/h (2 Bft) 95,74 %
16.09.2022 07:50 11,7 C 11,1 C 8,3 C 91 % 1010,6 hPa 0,0 l/m 0 min 0 min 25 W/m 6,4 km/h (2 Bft) 95,74 %
16.09.2022 07:52 11,7 C 11,1 C 8,3 C 91 % 1010,6 hPa 0,0 l/m 0 min 0 min 28 W/m 12,9 km/h (3 Bft) 95,74 %
16.09.2022 07:54 11,8 C 11,1 C 8,3 C 91 % 1010,6 hPa 0,0 l/m 0 min 0 min 30 W/m 6,4 km/h (2 Bft) 95,74 %
16.09.2022 07:56 11,8 C 11,7 C 8,3 C 91 % 1010,6 hPa 0,0 l/m 0 min 0 min 28 W/m 6,4 km/h (2 Bft) 95,74 %
16.09.2022 07:58 11,8 C 11,1 C 8,3 C 91 % 1010,5 hPa 0,0 l/m 0 min 0 min 28 W/m 12,9 km/h (3 Bft) 97,83 %
16.09.2022 08:00 11,8 C 11,7 C 8,3 C 91 % 1010,6 hPa 0,0 l/m 0 min 0 min 29 W/m 6,4 km/h (2 Bft) 97,87 %
16.09.2022 08:02 11,8 C 11,7 C 8,3 C 91 % 1010,6 hPa 0,0 l/m 0 min 0 min 31 W/m 6,4 km/h (2 Bft) 97,87 %
16.09.2022 08:04 11,8 C 11,7 C 8,3 C 91 % 1010,6 hPa 0,0 l/m 0 min 0 min 33 W/m 6,4 km/h (2 Bft) 97,87 %
16.09.2022 08:06 11,8 C 11,7 C 8,3 C 91 % 1010,6 hPa 0,0 l/m 0 min 0 min 35 W/m 9,7 km/h (2 Bft) 97,87 %
16.09.2022 08:08 11,8 C 11,7 C 8,3 C 91 % 1010,6 hPa 0,0 l/m 0 min 0 min 33 W/m 6,4 km/h (2 Bft) 100,00 %
16.09.2022 08:10 11,9 C 11,7 C 8,3 C 91 % 1010,6 hPa 0,0 l/m 0 min 0 min 35 W/m 12,9 km/h (3 Bft) 100,00 %
16.09.2022 08:12 11,9 C 11,7 C 8,3 C 91 % 1010,7 hPa 0,0 l/m 0 min 0 min 38 W/m 12,9 km/h (3 Bft) 100,00 %
16.09.2022 08:14 11,9 C 11,7 C 8,3 C 91 % 1010,6 hPa 0,0 l/m 0 min 0 min 44 W/m 6,4 km/h (2 Bft) 100,00 %
16.09.2022 08:16 11,9 C 11,7 C 8,3 C 91 % 1010,7 hPa 0,0 l/m 0 min 0 min 46 W/m 6,4 km/h (2 Bft) 100,00 %
16.09.2022 08:18 11,9 C 11,7 C 8,3 C 91 % 1010,7 hPa 0,0 l/m 0 min 0 min 46 W/m 9,7 km/h (2 Bft) 100,00 %
16.09.2022 08:20 11,9 C 11,7 C 8,3 C 91 % 1010,7 hPa 0,0 l/m 0 min 0 min 47 W/m 12,9 km/h (3 Bft) 100,00 %
16.09.2022 08:22 11,9 C 11,7 C 8,3 C 91 % 1010,8 hPa 0,0 l/m 0 min 0 min 49 W/m 12,9 km/h (3 Bft) 97,83 %
16.09.2022 08:24 11,9 C 11,7 C 8,3 C 91 % 1010,7 hPa 0,0 l/m 0 min 0 min 57 W/m 6,4 km/h (2 Bft) 100,00 %
16.09.2022 08:26 12,0 C 11,7 C 8,9 C 91 % 1010,7 hPa 0,0 l/m 0 min 0 min 60 W/m 9,7 km/h (2 Bft) 100,00 %
16.09.2022 08:28 12,0 C 11,7 C 8,9 C 91 % 1010,6 hPa 0,0 l/m 0 min 0 min 56 W/m 6,4 km/h (2 Bft) 100,00 %
16.09.2022 08:30 12,0 C 11,7 C 8,9 C 91 % 1010,6 hPa 0,0 l/m 0 min 0 min 54 W/m 9,7 km/h (2 Bft) 97,87 %
16.09.2022 08:32 12,0 C 11,7 C 8,9 C 91 % 1010,6 hPa 0,0 l/m 0 min 0 min 54 W/m 6,4 km/h (2 Bft) 100,00 %
16.09.2022 08:34 12,0 C 11,7 C 8,9 C 91 % 1010,6 hPa 0,0 l/m 0 min 0 min 58 W/m 6,4 km/h (2 Bft) 100,00 %
16.09.2022 08:36 12,1 C 11,7 C 8,9 C 91 % 1010,6 hPa 0,0 l/m 0 min 0 min 59 W/m 9,7 km/h (2 Bft) 100,00 %
16.09.2022 08:38 12,1 C 11,7 C 8,9 C 91 % 1010,6 hPa 0,0 l/m 0 min 0 min 53 W/m 9,7 km/h (2 Bft) 97,87 %
16.09.2022 08:40 12,1 C 11,7 C 8,9 C 91 % 1010,7 hPa 0,0 l/m 0 min 0 min 50 W/m 16,1 km/h (3 Bft) 97,87 %
16.09.2022 08:42 12,1 C 11,7 C 8,9 C 91 % 1010,7 hPa 0,0 l/m 0 min 0 min 52 W/m 3,2 km/h (1 Bft) 100,00 %
16.09.2022 08:44 12,1 C 11,7 C 8,9 C 91 % 1010,7 hPa 0,0 l/m 0 min 0 min 53 W/m 6,4 km/h (2 Bft) 97,87 %
16.09.2022 08:46 12,1 C 11,7 C 8,9 C 91 % 1010,6 hPa 0,0 l/m 0 min 0 min 52 W/m 9,7 km/h (2 Bft) 97,83 %
16.09.2022 08:48 12,1 C 11,7 C 8,9 C 91 % 1010,7 hPa 0,0 l/m 0 min 0 min 62 W/m 6,4 km/h (2 Bft) 97,87 %
16.09.2022 08:50 12,1 C 11,7 C 8,9 C 90 % 1010,6 hPa 0,0 l/m 0 min 0 min 78 W/m 12,9 km/h (3 Bft) 97,87 %
16.09.2022 08:52 12,1 C 11,7 C 8,9 C 90 % 1010,6 hPa 0,0 l/m 0 min 0 min 87 W/m 6,4 km/h (2 Bft) 97,87 %
16.09.2022 08:54 12,2 C 12,2 C 8,9 C 91 % 1010,7 hPa 0,0 l/m 0 min 0 min 93 W/m 9,7 km/h (2 Bft) 97,87 %
16.09.2022 08:56 12,2 C 12,2 C 8,9 C 91 % 1010,7 hPa 0,0 l/m 0 min 0 min 96 W/m 12,9 km/h (3 Bft) 97,87 %
16.09.2022 08:58 12,2 C 12,2 C 8,9 C 91 % 1010,6 hPa 0,0 l/m 0 min 0 min 91 W/m 16,1 km/h (3 Bft) 95,65 %
16.09.2022 09:00 12,2 C 12,2 C 8,9 C 91 % 1010,6 hPa 0,0 l/m 0 min 0 min 85 W/m 6,4 km/h (2 Bft) 97,87 %
16.09.2022 09:02 12,3 C 12,2 C 8,9 C 91 % 1010,6 hPa 0,0 l/m 0 min 0 min 86 W/m 3,2 km/h (1 Bft) 97,87 %
16.09.2022 09:04 12,3 C 12,2 C 8,9 C 91 % 1010,6 hPa 0,0 l/m 0 min 0 min 94 W/m 6,4 km/h (2 Bft) 97,87 %
16.09.2022 09:06 12,3 C 12,2 C 8,9 C 91 % 1010,7 hPa 0,0 l/m 0 min 0 min 106 W/m 12,9 km/h (3 Bft) 97,87 %
16.09.2022 09:08 12,3 C 12,2 C 8,9 C 91 % 1010,7 hPa 0,0 l/m 0 min 0 min 108 W/m 6,4 km/h (2 Bft) 97,87 %
16.09.2022 09:10 12,4 C 12,2 C 8,9 C 90 % 1010,7 hPa 0,0 l/m 0 min 0 min 103 W/m 6,4 km/h (2 Bft) 95,65 %
16.09.2022 09:12 12,4 C 12,2 C 8,9 C 91 % 1010,7 hPa 0,0 l/m 0 min 0 min 99 W/m 12,9 km/h (3 Bft) 95,74 %
16.09.2022 09:14 12,4 C 12,2 C 9,4 C 91 % 1010,7 hPa 0,0 l/m 0 min 0 min 98 W/m 6,4 km/h (2 Bft) 97,87 %
16.09.2022 09:16 12,4 C 12,2 C 8,9 C 91 % 1010,7 hPa 0,0 l/m 0 min 0 min 89 W/m 6,4 km/h (2 Bft) 95,74 %
16.09.2022 09:18 12,4 C 12,2 C 8,9 C 91 % 1010,8 hPa 0,0 l/m 0 min 0 min 76 W/m 12,9 km/h (3 Bft) 95,74 %
16.09.2022 09:20 12,4 C 12,2 C 8,9 C 91 % 1010,8 hPa 0,0 l/m 0 min 0 min 63 W/m 6,4 km/h (2 Bft) 97,87 %
16.09.2022 09:22 12,4 C 12,2 C 8,9 C 91 % 1010,8 hPa 0,0 l/m 0 min 0 min 52 W/m 3,2 km/h (1 Bft) 95,65 %
16.09.2022 09:24 12,5 C 12,2 C 8,9 C 90 % 1010,9 hPa 0,0 l/m 0 min 0 min 48 W/m 6,4 km/h (2 Bft) 97,87 %
16.09.2022 09:26 12,5 C 12,2 C 8,9 C 90 % 1010,9 hPa 0,0 l/m 0 min 0 min 48 W/m 9,7 km/h (2 Bft) 97,87 %
16.09.2022 09:28 12,5 C 12,2 C 8,9 C 90 % 1010,9 hPa 0,0 l/m 0 min 0 min 53 W/m 9,7 km/h (2 Bft) 95,74 %
16.09.2022 09:30 12,5 C 12,2 C 8,9 C 90 % 1010,9 hPa 0,0 l/m 0 min 0 min 62 W/m 12,9 km/h (3 Bft) 97,87 %
16.09.2022 09:32 12,5 C 12,2 C 8,9 C 90 % 1010,9 hPa 0,0 l/m 0 min 0 min 84 W/m 12,9 km/h (3 Bft) 97,87 %
16.09.2022 09:34 12,6 C 12,8 C 9,4 C 91 % 1010,9 hPa 0,0 l/m 0 min 0 min 115 W/m 6,4 km/h (2 Bft) 97,87 %
16.09.2022 09:36 12,7 C 12,8 C 9,4 C 91 % 1010,9 hPa 0,0 l/m 0 min 0 min 126 W/m 9,7 km/h (2 Bft) 95,65 %
16.09.2022 09:38 12,7 C 12,8 C 9,4 C 91 % 1010,9 hPa 0,0 l/m 0 min 0 min 129 W/m 19,3 km/h (3 Bft) 97,87 %
16.09.2022 09:40 12,8 C 12,8 C 9,4 C 90 % 1010,9 hPa 0,0 l/m 0 min 0 min 137 W/m 16,1 km/h (3 Bft) 95,74 %
16.09.2022 09:42 12,8 C 12,8 C 9,4 C 90 % 1010,9 hPa 0,0 l/m 0 min 0 min 163 W/m 12,9 km/h (3 Bft) 97,87 %
16.09.2022 09:44 12,8 C 13,3 C 9,4 C 90 % 1010,9 hPa 0,0 l/m 0 min 0 min 174 W/m 12,9 km/h (3 Bft) 97,87 %
16.09.2022 09:46 12,9 C 13,3 C 10,0 C 90 % 1011,0 hPa 0,0 l/m 0 min 0 min 167 W/m 6,4 km/h (2 Bft) 97,83 %
16.09.2022 09:48 12,9 C 13,3 C 10,0 C 90 % 1011,0 hPa 0,0 l/m 0 min 0 min 141 W/m 12,9 km/h (3 Bft) 97,87 %
16.09.2022 09:50 13,1 C 13,3 C 10,0 C 89 % 1011,0 hPa 0,0 l/m 0 min 0 min 127 W/m 6,4 km/h (2 Bft) 97,87 %
16.09.2022 09:52 13,1 C 13,3 C 10,0 C 89 % 1010,9 hPa 0,0 l/m 0 min 0 min 122 W/m 12,9 km/h (3 Bft) 93,62 %
16.09.2022 09:54 13,2 C 14,4 C 10,0 C 89 % 1011,1 hPa 0,0 l/m 0 min 0 min 115 W/m 16,1 km/h (3 Bft) 97,87 %
16.09.2022 09:56 13,2 C 14,4 C 10,0 C 89 % 1011,0 hPa 0,0 l/m 0 min 0 min 130 W/m 12,9 km/h (3 Bft) 95,74 %
16.09.2022 09:58 13,3 C 14,4 C 10,0 C 89 % 1011,0 hPa 0,0 l/m 0 min 0 min 152 W/m 16,1 km/h (3 Bft) 97,83 %
16.09.2022 10:00 13,3 C 14,4 C 10,0 C 88 % 1011,1 hPa 0,0 l/m 0 min 0 min 123 W/m 16,1 km/h (3 Bft) 97,87 %
16.09.2022 10:02 13,4 C 13,9 C 10,0 C 88 % 1011,1 hPa 0,0 l/m 0 min 0 min 109 W/m 12,9 km/h (3 Bft) 97,87 %
16.09.2022 10:04 13,5 C 13,9 C 10,0 C 87 % 1011,1 hPa 0,0 l/m 0 min 0 min 86 W/m 12,9 km/h (3 Bft) 100,00 %
16.09.2022 10:06 13,5 C 13,9 C 10,0 C 87 % 1011,2 hPa 0,0 l/m 0 min 0 min 68 W/m 29,0 km/h (5 Bft) 97,87 %
16.09.2022 10:08 13,5 C 13,3 C 10,0 C 86 % 1011,1 hPa 0,0 l/m 0 min 0 min 61 W/m 16,1 km/h (3 Bft) 100,00 %
16.09.2022 10:10 13,6 C 13,3 C 10,0 C 86 % 1011,1 hPa 0,0 l/m 0 min 0 min 74 W/m 19,3 km/h (3 Bft) 97,83 %
16.09.2022 10:12 13,6 C 13,3 C 10,0 C 86 % 1011,1 hPa 0,0 l/m 0 min 0 min 90 W/m 16,1 km/h (3 Bft) 97,87 %
16.09.2022 10:14 13,6 C 13,3 C 10,0 C 86 % 1011,1 hPa 0,0 l/m 0 min 0 min 54 W/m 16,1 km/h (3 Bft) 97,87 %
16.09.2022 10:16 13,7 C 13,3 C 10,0 C 85 % 1011,1 hPa 0,0 l/m 0 min 0 min 53 W/m 16,1 km/h (3 Bft) 97,87 %
16.09.2022 10:18 13,7 C 13,9 C 10,0 C 85 % 1011,1 hPa 0,0 l/m 0 min 0 min 55 W/m 12,9 km/h (3 Bft) 95,74 %
16.09.2022 10:20 13,8 C 13,9 C 10,0 C 84 % 1011,1 hPa 0,0 l/m 0 min 0 min 68 W/m 16,1 km/h (3 Bft) 95,74 %
16.09.2022 10:22 13,9 C 13,9 C 10,0 C 84 % 1011,1 hPa 0,0 l/m 0 min 0 min 87 W/m 16,1 km/h (3 Bft) 97,83 %
16.09.2022 10:24 13,9 C 13,9 C 10,0 C 84 % 1011,1 hPa 0,0 l/m 0 min 0 min 80 W/m 16,1 km/h (3 Bft) 97,87 %
16.09.2022 10:26 14,1 C 13,9 C 10,6 C 84 % 1011,1 hPa 0,0 l/m 0 min 0 min 86 W/m 12,9 km/h (3 Bft) 97,87 %
16.09.2022 10:28 14,2 C 13,9 C 10,6 C 84 % 1011,2 hPa 0,0 l/m 0 min 0 min 89 W/m 19,3 km/h (3 Bft) 97,87 %
16.09.2022 10:30 14,3 C 13,9 C 10,6 C 84 % 1011,1 hPa 0,0 l/m 0 min 0 min 81 W/m 12,9 km/h (3 Bft) 95,74 %
16.09.2022 10:32 14,3 C 13,9 C 10,6 C 84 % 1011,1 hPa 0,0 l/m 0 min 0 min 93 W/m 16,1 km/h (3 Bft) 97,87 %
16.09.2022 10:34 14,3 C 13,9 C 10,6 C 83 % 1011,1 hPa 0,0 l/m 0 min 0 min 98 W/m 12,9 km/h (3 Bft) 97,83 %
16.09.2022 10:36 14,3 C 13,9 C 10,6 C 83 % 1011,1 hPa 0,0 l/m 0 min 0 min 100 W/m 16,1 km/h (3 Bft) 97,87 %
16.09.2022 10:38 14,3 C 13,9 C 10,6 C 82 % 1011,2 hPa 0,0 l/m 0 min 0 min 116 W/m 16,1 km/h (3 Bft) 97,87 %
16.09.2022 10:40 14,3 C 13,9 C 10,6 C 83 % 1011,2 hPa 0,0 l/m 0 min 0 min 151 W/m 12,9 km/h (3 Bft) 97,87 %
16.09.2022 10:42 14,3 C 13,9 C 10,6 C 83 % 1011,2 hPa 0,0 l/m 0 min 0 min 82 W/m 12,9 km/h (3 Bft) 95,74 %
16.09.2022 10:44 14,3 C 13,9 C 10,6 C 83 % 1011,1 hPa 0,0 l/m 0 min 0 min 70 W/m 16,1 km/h (3 Bft) 97,87 %
16.09.2022 10:46 14,3 C 14,4 C 10,6 C 83 % 1011,2 hPa 0,0 l/m 0 min 0 min 65 W/m 12,9 km/h (3 Bft) 97,83 %
16.09.2022 10:48 14,3 C 14,4 C 10,6 C 83 % 1011,2 hPa 0,0 l/m 0 min 0 min 63 W/m 9,7 km/h (2 Bft) 97,87 %
16.09.2022 10:50 14,3 C 14,4 C 10,6 C 82 % 1011,2 hPa 0,0 l/m 0 min 0 min 60 W/m 12,9 km/h (3 Bft) 97,87 %
16.09.2022 10:52 14,4 C 14,4 C 10,6 C 82 % 1011,2 hPa 0,0 l/m 0 min 0 min 98 W/m 16,1 km/h (3 Bft) 95,74 %
16.09.2022 10:54 14,4 C 14,4 C 10,6 C 82 % 1011,3 hPa 0,0 l/m 0 min 0 min 212 W/m 16,1 km/h (3 Bft) 97,87 %
16.09.2022 10:56 14,5 C 14,4 C 10,6 C 82 % 1011,3 hPa 0,0 l/m 2 min 0 min 402 W/m 16,1 km/h (3 Bft) 97,87 %
16.09.2022 10:58 14,6 C 14,4 C 10,6 C 82 % 1011,3 hPa 0,0 l/m 2 min 0 min 578 W/m 12,9 km/h (3 Bft) 100,00 %
16.09.2022 11:00 14,5 C 14,4 C 10,6 C 82 % 1011,3 hPa 0,0 l/m 2 min 0 min 582 W/m 12,9 km/h (3 Bft) 97,87 %
16.09.2022 11:02 14,6 C 15,0 C 10,6 C 82 % 1011,3 hPa 0,0 l/m 2 min 0 min 599 W/m 19,3 km/h (3 Bft) 95,74 %
16.09.2022 11:04 14,6 C 16,1 C 10,6 C 82 % 1011,3 hPa 0,0 l/m 0 min 0 min 244 W/m 12,9 km/h (3 Bft) 97,87 %
16.09.2022 11:06 14,7 C 16,7 C 10,6 C 82 % 1011,3 hPa 0,0 l/m 2 min 0 min 292 W/m 12,9 km/h (3 Bft) 97,87 %
16.09.2022 11:08 14,7 C 16,7 C 11,1 C 82 % 1011,3 hPa 0,0 l/m 2 min 0 min 332 W/m 12,9 km/h (3 Bft) 97,87 %
16.09.2022 11:10 14,8 C 16,1 C 11,1 C 82 % 1011,3 hPa 0,0 l/m 0 min 0 min 236 W/m 12,9 km/h (3 Bft) 95,65 %
16.09.2022 11:12 14,8 C 15,6 C 11,1 C 81 % 1011,3 hPa 0,0 l/m 0 min 0 min 139 W/m 9,7 km/h (2 Bft) 97,87 %
16.09.2022 11:14 14,9 C 15,6 C 11,1 C 82 % 1011,4 hPa 0,0 l/m 0 min 0 min 98 W/m 16,1 km/h (3 Bft) 100,00 %
16.09.2022 11:16 15,0 C 15,6 C 11,1 C 80 % 1011,4 hPa 0,0 l/m 0 min 0 min 166 W/m 16,1 km/h (3 Bft) 100,00 %
16.09.2022 11:18 15,1 C 15,6 C 11,1 C 80 % 1011,4 hPa 0,0 l/m 0 min 0 min 167 W/m 16,1 km/h (3 Bft) 100,00 %
16.09.2022 11:20 15,1 C 15,6 C 11,7 C 80 % 1011,4 hPa 0,0 l/m 0 min 0 min 202 W/m 22,5 km/h (4 Bft) 93,62 %
16.09.2022 11:22 15,2 C 15,6 C 11,7 C 79 % 1011,4 hPa 0,0 l/m 0 min 0 min 211 W/m 19,3 km/h (3 Bft) 97,83 %
16.09.2022 11:24 15,3 C 16,1 C 11,7 C 79 % 1011,4 hPa 0,0 l/m 0 min 0 min 211 W/m 12,9 km/h (3 Bft) 97,87 %
16.09.2022 11:26 15,3 C 16,7 C 11,7 C 80 % 1011,3 hPa 0,0 l/m 0 min 0 min 257 W/m 12,9 km/h (3 Bft) 97,87 %
16.09.2022 11:28 15,4 C 16,1 C 12,2 C 79 % 1011,3 hPa 0,0 l/m 2 min 0 min 345 W/m 12,9 km/h (3 Bft) 97,87 %
16.09.2022 11:30 15,4 C 16,1 C 12,2 C 79 % 1011,3 hPa 0,0 l/m 0 min 0 min 223 W/m 9,7 km/h (2 Bft) 95,74 %
16.09.2022 11:32 15,5 C 16,1 C 12,2 C 79 % 1011,3 hPa 0,0 l/m 0 min 0 min 197 W/m 6,4 km/h (2 Bft) 95,74 %
16.09.2022 11:34 15,5 C 15,6 C 11,7 C 79 % 1011,3 hPa 0,0 l/m 0 min 0 min 182 W/m 12,9 km/h (3 Bft) 93,48 %
16.09.2022 11:36 15,5 C 15,6 C 11,7 C 78 % 1011,2 hPa 0,0 l/m 0 min 0 min 246 W/m 9,7 km/h (2 Bft) 97,87 %
16.09.2022 11:38 15,5 C 16,1 C 12,2 C 78 % 1011,2 hPa 0,0 l/m 0 min 0 min 269 W/m 6,4 km/h (2 Bft) 95,74 %
16.09.2022 11:40 15,5 C 16,1 C 12,2 C 78 % 1011,2 hPa 0,0 l/m 0 min 0 min 269 W/m 16,1 km/h (3 Bft) 95,74 %
16.09.2022 11:42 15,5 C 15,6 C 11,7 C 77 % 1011,2 hPa 0,0 l/m 0 min 0 min 117 W/m 19,3 km/h (3 Bft) 95,74 %
16.09.2022 11:44 15,5 C 15,0 C 11,7 C 76 % 1011,2 hPa 0,0 l/m 0 min 0 min 38 W/m 12,9 km/h (3 Bft) 95,74 %
16.09.2022 11:46 15,4 C 14,4 C 11,1 C 76 % 1011,2 hPa 0,0 l/m 0 min 0 min 34 W/m 9,7 km/h (2 Bft) 95,65 %
16.09.2022 11:48 15,3 C 14,4 C 11,1 C 76 % 1011,2 hPa 0,0 l/m 0 min 0 min 53 W/m 16,1 km/h (3 Bft) 95,74 %
16.09.2022 11:50 15,2 C 14,4 C 11,1 C 76 % 1011,2 hPa 0,0 l/m 0 min 0 min 84 W/m 12,9 km/h (3 Bft) 93,62 %
16.09.2022 11:52 15,1 C 14,4 C 11,1 C 76 % 1011,2 hPa 0,0 l/m 0 min 0 min 124 W/m 9,7 km/h (2 Bft) 89,36 %
16.09.2022 11:54 15,1 C 14,4 C 11,1 C 77 % 1011,2 hPa 0,0 l/m 0 min 0 min 148 W/m 9,7 km/h (2 Bft) 95,74 %
16.09.2022 11:56 15,1 C 14,4 C 11,1 C 77 % 1011,2 hPa 0,0 l/m 0 min 0 min 172 W/m 12,9 km/h (3 Bft) 93,62 %
16.09.2022 11:58 15,1 C 15,0 C 11,1 C 78 % 1011,2 hPa 0,0 l/m 0 min 0 min 184 W/m 9,7 km/h (2 Bft) 95,65 %
16.09.2022 12:00 15,1 C 14,4 C 11,1 C 78 % 1011,2 hPa 0,0 l/m 0 min 0 min 137 W/m 12,9 km/h (3 Bft) 95,74 %
16.09.2022 12:02 15,1 C 14,4 C 11,1 C 78 % 1011,1 hPa 0,0 l/m 0 min 0 min 105 W/m 9,7 km/h (2 Bft) 95,74 %
16.09.2022 12:04 15,1 C 14,4 C 11,1 C 77 % 1011,1 hPa 0,0 l/m 0 min 0 min 81 W/m 16,1 km/h (3 Bft) 95,74 %
16.09.2022 12:08 15,0 C 14,4 C 11,1 C 78 % 1011,1 hPa 0,0 l/m 0 min 0 min 72 W/m 12,9 km/h (3 Bft) 98,95 %
16.09.2022 12:10 14,9 C 14,4 C 10,6 C 78 % 1011,2 hPa 0,0 l/m 0 min 0 min 65 W/m 16,1 km/h (3 Bft) 100,00 %
16.09.2022 12:12 14,9 C 14,4 C 10,6 C 78 % 1011,2 hPa 0,0 l/m 0 min 0 min 64 W/m 16,1 km/h (3 Bft) 97,87 %
16.09.2022 12:14 14,9 C 13,9 C 10,6 C 78 % 1011,1 hPa 0,0 l/m 0 min 0 min 66 W/m 6,4 km/h (2 Bft) 100,00 %
16.09.2022 12:16 14,8 C 13,9 C 10,6 C 78 % 1011,2 hPa 0,0 l/m 0 min 0 min 72 W/m 19,3 km/h (3 Bft) 100,00 %
16.09.2022 12:18 14,8 C 13,9 C 10,6 C 78 % 1011,2 hPa 0,0 l/m 0 min 2 min 82 W/m 19,3 km/h (3 Bft) 97,87 %
16.09.2022 12:20 14,8 C 13,9 C 10,6 C 78 % 1011,1 hPa 0,0 l/m 0 min 2 min 94 W/m 12,9 km/h (3 Bft) 100,00 %
16.09.2022 12:22 14,8 C 13,9 C 10,6 C 80 % 1011,1 hPa 0,0 l/m 0 min 2 min 108 W/m 6,4 km/h (2 Bft) 100,00 %
16.09.2022 12:24 14,8 C 13,9 C 10,6 C 81 % 1011,1 hPa 0,0 l/m 0 min 2 min 144 W/m 9,7 km/h (2 Bft) 100,00 %
16.09.2022 12:26 14,8 C 14,4 C 10,6 C 81 % 1011,1 hPa 0,0 l/m 0 min 0 min 206 W/m 12,9 km/h (3 Bft) 100,00 %
16.09.2022 12:28 14,8 C 15,0 C 10,6 C 82 % 1011,1 hPa 0,0 l/m 0 min 0 min 268 W/m 9,7 km/h (2 Bft) 100,00 %
16.09.2022 12:30 14,8 C 15,6 C 11,1 C 83 % 1011,1 hPa 0,0 l/m 0 min 0 min 305 W/m 16,1 km/h (3 Bft) 100,00 %
16.09.2022 12:32 14,9 C 15,6 C 11,1 C 82 % 1011,0 hPa 0,0 l/m 0 min 0 min 285 W/m 9,7 km/h (2 Bft) 97,83 %
16.09.2022 12:34 15,0 C 15,6 C 11,1 C 82 % 1011,0 hPa 0,0 l/m 0 min 0 min 227 W/m 16,1 km/h (3 Bft) 100,00 %
16.09.2022 12:36 15,0 C 15,6 C 11,1 C 81 % 1011,1 hPa 0,0 l/m 0 min 0 min 149 W/m 12,9 km/h (3 Bft) 100,00 %
16.09.2022 12:38 15,1 C 15,0 C 11,1 C 81 % 1011,0 hPa 0,0 l/m 0 min 2 min 85 W/m 9,7 km/h (2 Bft) 100,00 %
16.09.2022 12:40 15,0 C 14,4 C 9,4 C 81 % 1011,1 hPa 0,4 l/m 0 min 2 min 61 W/m 9,7 km/h (2 Bft) 97,87 %
16.09.2022 12:42 15,0 C 13,9 C 8,9 C 83 % 1011,1 hPa 0,8 l/m 0 min 2 min 66 W/m 6,4 km/h (2 Bft) 100,00 %
16.09.2022 12:44 14,9 C 13,3 C 8,9 C 83 % 1011,1 hPa 0,0 l/m 0 min 2 min 90 W/m 9,7 km/h (2 Bft) 100,00 %
16.09.2022 12:46 14,8 C 13,3 C 8,9 C 84 % 1011,1 hPa 0,0 l/m 0 min 2 min 100 W/m 9,7 km/h (2 Bft) 100,00 %
16.09.2022 12:48 14,6 C 13,3 C 8,3 C 84 % 1011,1 hPa 0,0 l/m 0 min 0 min 92 W/m 6,4 km/h (2 Bft) 100,00 %
16.09.2022 12:50 14,5 C 13,3 C 8,3 C 84 % 1011,0 hPa 0,0 l/m 0 min 0 min 90 W/m 12,9 km/h (3 Bft) 100,00 %
16.09.2022 12:52 14,3 C 13,3 C 8,3 C 84 % 1011,0 hPa 0,0 l/m 0 min 0 min 111 W/m 6,4 km/h (2 Bft) 100,00 %
16.09.2022 12:54 14,3 C 13,3 C 8,3 C 85 % 1011,0 hPa 0,0 l/m 0 min 0 min 130 W/m 9,7 km/h (2 Bft) 100,00 %
16.09.2022 12:56 14,3 C 13,3 C 8,3 C 85 % 1011,0 hPa 0,0 l/m 0 min 0 min 151 W/m 9,7 km/h (2 Bft) 100,00 %
16.09.2022 12:58 14,3 C 13,9 C 8,9 C 85 % 1011,0 hPa 0,0 l/m 0 min 0 min 177 W/m 6,4 km/h (2 Bft) 100,00 %
16.09.2022 13:00 14,3 C 13,9 C 8,9 C 86 % 1011,0 hPa 0,0 l/m 0 min 0 min 224 W/m 12,9 km/h (3 Bft) 100,00 %
16.09.2022 13:02 14,3 C 14,4 C 8,9 C 86 % 1011,0 hPa 0,0 l/m 0 min 0 min 300 W/m 6,4 km/h (2 Bft) 97,87 %
16.09.2022 13:04 14,3 C 15,0 C 8,9 C 87 % 1011,0 hPa 0,0 l/m 2 min 0 min 327 W/m 3,2 km/h (1 Bft) 100,00 %
16.09.2022 13:06 14,3 C 15,0 C 8,9 C 87 % 1011,0 hPa 0,0 l/m 2 min 0 min 352 W/m 19,3 km/h (3 Bft) 100,00 %
16.09.2022 13:08 14,3 C 15,6 C 9,4 C 87 % 1011,0 hPa 0,0 l/m 0 min 0 min 315 W/m 12,9 km/h (3 Bft) 100,00 %
16.09.2022 13:10 14,4 C 15,6 C 8,9 C 86 % 1011,0 hPa 0,0 l/m 0 min 0 min 319 W/m 16,1 km/h (3 Bft) 100,00 %
16.09.2022 13:12 14,5 C 15,6 C 8,9 C 85 % 1011,0 hPa 0,0 l/m 2 min 0 min 325 W/m 12,9 km/h (3 Bft) 100,00 %
16.09.2022 13:14 14,6 C 15,6 C 8,9 C 85 % 1011,0 hPa 0,0 l/m 2 min 0 min 326 W/m 9,7 km/h (2 Bft) 100,00 %
16.09.2022 13:16 14,7 C 15,6 C 9,4 C 85 % 1011,0 hPa 0,0 l/m 0 min 0 min 288 W/m 12,9 km/h (3 Bft) 97,87 %
16.09.2022 13:18 14,8 C 15,6 C 9,4 C 85 % 1011,0 hPa 0,0 l/m 0 min 0 min 206 W/m 16,1 km/h (3 Bft) 100,00 %
16.09.2022 13:20 14,9 C 15,6 C 8,9 C 83 % 1011,0 hPa 0,0 l/m 0 min 0 min 181 W/m 12,9 km/h (3 Bft) 100,00 %
16.09.2022 13:22 14,9 C 15,0 C 8,9 C 83 % 1011,1 hPa 0,0 l/m 0 min 0 min 169 W/m 12,9 km/h (3 Bft) 97,87 %
16.09.2022 13:24 14,9 C 15,0 C 8,9 C 82 % 1011,1 hPa 0,0 l/m 0 min 0 min 152 W/m 12,9 km/h (3 Bft) 97,87 %
16.09.2022 13:26 14,9 C 14,4 C 8,9 C 81 % 1011,2 hPa 0,0 l/m 0 min 0 min 119 W/m 12,9 km/h (3 Bft) 100,00 %
16.09.2022 13:28 14,9 C 14,4 C 8,3 C 81 % 1011,3 hPa 0,0 l/m 0 min 2 min 77 W/m 38,6 km/h (5 Bft) 95,74 %
16.09.2022 13:30 14,6 C 13,3 C 7,8 C 81 % 1011,5 hPa 0,2 l/m 0 min 2 min 45 W/m 38,6 km/h (5 Bft) 95,74 %
16.09.2022 13:32 14,1 C 12,2 C 7,8 C 82 % 1011,7 hPa 0,2 l/m 0 min 2 min 50 W/m 25,7 km/h (4 Bft) 95,65 %
16.09.2022 13:34 13,4 C 11,1 C 7,2 C 82 % 1011,9 hPa 0,6 l/m 0 min 2 min 45 W/m 32,2 km/h (5 Bft) 95,74 %
16.09.2022 13:36 12,9 C 10,6 C 6,7 C 84 % 1011,8 hPa 0,4 l/m 0 min 2 min 44 W/m 22,5 km/h (4 Bft) 93,62 %
16.09.2022 13:38 12,6 C 10,6 C 6,7 C 85 % 1011,8 hPa 0,2 l/m 0 min 2 min 47 W/m 19,3 km/h (3 Bft) 95,74 %
16.09.2022 13:40 12,4 C 10,6 C 6,7 C 86 % 1011,8 hPa 0,4 l/m 0 min 2 min 51 W/m 9,7 km/h (2 Bft) 95,74 %
16.09.2022 13:42 12,3 C 10,6 C 6,7 C 87 % 1011,8 hPa 0,0 l/m 0 min 2 min 58 W/m 16,1 km/h (3 Bft) 94,29 %
16.09.2022 13:44 12,1 C 10,6 C 6,7 C 87 % 1011,8 hPa 0,2 l/m 0 min 2 min 63 W/m 19,3 km/h (3 Bft) 95,92 %
16.09.2022 13:46 11,9 C 10,6 C 6,7 C 88 % 1011,8 hPa 0,2 l/m 0 min 2 min 69 W/m 6,4 km/h (2 Bft) 97,83 %
16.09.2022 13:48 11,9 C 10,6 C 6,7 C 89 % 1011,8 hPa 0,0 l/m 0 min 2 min 76 W/m 3,2 km/h (1 Bft) 95,74 %
16.09.2022 13:50 11,9 C 10,6 C 6,7 C 90 % 1011,8 hPa 0,0 l/m 0 min 2 min 95 W/m 6,4 km/h (2 Bft) 95,74 %
16.09.2022 13:52 11,8 C 10,6 C 6,7 C 90 % 1011,8 hPa 0,0 l/m 0 min 2 min 123 W/m 6,4 km/h (2 Bft) 95,74 %
16.09.2022 13:54 11,8 C 11,1 C 7,2 C 90 % 1011,8 hPa 0,0 l/m 0 min 0 min 142 W/m 6,4 km/h (2 Bft) 93,62 %
16.09.2022 13:56 11,8 C 11,1 C 7,2 C 90 % 1011,6 hPa 0,2 l/m 0 min 0 min 158 W/m 3,2 km/h (1 Bft) 95,74 %
16.09.2022 13:58 11,8 C 11,1 C 7,2 C 91 % 1011,7 hPa 0,0 l/m 0 min 0 min 180 W/m 6,4 km/h (2 Bft) 97,83 %
16.09.2022 14:00 11,9 C 11,7 C 7,8 C 91 % 1011,7 hPa 0,0 l/m 0 min 0 min 198 W/m 3,2 km/h (1 Bft) 100,00 %
16.09.2022 14:02 11,9 C 11,7 C 7,2 C 92 % 1011,7 hPa 0,0 l/m 0 min 0 min 210 W/m 3,2 km/h (1 Bft) 97,87 %
16.09.2022 14:04 12,1 C 11,7 C 7,8 C 92 % 1011,7 hPa 0,0 l/m 0 min 0 min 232 W/m 6,4 km/h (2 Bft) 97,87 %
16.09.2022 14:06 12,1 C 12,2 C 7,8 C 92 % 1011,6 hPa 0,0 l/m 0 min 0 min 285 W/m 12,9 km/h (3 Bft) 98,28 %
16.09.2022 14:08 12,2 C 12,8 C 7,8 C 93 % 1011,6 hPa 0,0 l/m 0 min 0 min 300 W/m 6,4 km/h (2 Bft) 94,44 %
16.09.2022 14:10 12,3 C 12,8 C 7,8 C 93 % 1011,6 hPa 0,0 l/m 0 min 0 min 276 W/m 6,4 km/h (2 Bft) 97,83 %
16.09.2022 14:12 12,3 C 12,8 C 8,3 C 93 % 1011,6 hPa 0,0 l/m 0 min 0 min 283 W/m 9,7 km/h (2 Bft) 97,87 %
16.09.2022 14:14 12,4 C 12,8 C 8,3 C 93 % 1011,7 hPa 0,0 l/m 0 min 0 min 263 W/m 9,7 km/h (2 Bft) 95,74 %
16.09.2022 14:16 12,4 C 12,8 C 8,3 C 93 % 1011,6 hPa 0,0 l/m 0 min 0 min 219 W/m 9,7 km/h (2 Bft) 95,74 %
16.09.2022 14:18 12,5 C 12,8 C 7,8 C 93 % 1011,6 hPa 0,0 l/m 0 min 0 min 199 W/m 12,9 km/h (3 Bft) 97,87 %
16.09.2022 14:20 12,6 C 12,8 C 7,8 C 93 % 1011,6 hPa 0,0 l/m 0 min 0 min 193 W/m 6,4 km/h (2 Bft) 97,87 %
16.09.2022 14:22 12,6 C 12,8 C 8,3 C 93 % 1011,6 hPa 0,0 l/m 0 min 0 min 184 W/m 12,9 km/h (3 Bft) 97,83 %
16.09.2022 14:24 12,6 C 12,8 C 8,3 C 93 % 1011,6 hPa 0,0 l/m 0 min 0 min 172 W/m 6,4 km/h (2 Bft) 95,74 %
16.09.2022 14:26 12,7 C 12,8 C 7,8 C 93 % 1011,6 hPa 0,0 l/m 0 min 0 min 160 W/m 12,9 km/h (3 Bft) 97,87 %
16.09.2022 14:28 12,6 C 12,8 C 7,8 C 93 % 1011,6 hPa 0,0 l/m 0 min 0 min 151 W/m 12,9 km/h (3 Bft) 97,87 %
16.09.2022 14:30 12,6 C 12,8 C 7,8 C 93 % 1011,6 hPa 0,0 l/m 0 min 0 min 154 W/m 12,9 km/h (3 Bft) 95,74 %
16.09.2022 14:32 12,6 C 12,8 C 7,8 C 92 % 1011,6 hPa 0,0 l/m 0 min 0 min 162 W/m 19,3 km/h (3 Bft) 95,74 %
16.09.2022 14:34 12,6 C 12,8 C 7,8 C 92 % 1011,5 hPa 0,0 l/m 0 min 0 min 176 W/m 9,7 km/h (2 Bft) 97,83 %
16.09.2022 14:36 12,5 C 12,8 C 7,8 C 92 % 1011,5 hPa 0,0 l/m 0 min 0 min 211 W/m 6,4 km/h (2 Bft) 77,97 %
16.09.2022 14:38 12,6 C 13,3 C 7,8 C 92 % 1011,5 hPa 0,0 l/m 0 min 0 min 229 W/m 9,7 km/h (2 Bft) 52,94 %
16.09.2022 14:40 12,6 C 13,9 C 7,8 C 91 % 1011,5 hPa 0,0 l/m 2 min 0 min 378 W/m 12,9 km/h (3 Bft) 97,87 %
16.09.2022 14:42 12,6 C 13,9 C 7,8 C 92 % 1011,5 hPa 0,0 l/m 2 min 0 min 401 W/m 9,7 km/h (2 Bft) 97,87 %
16.09.2022 14:44 12,7 C 14,4 C 7,8 C 92 % 1011,5 hPa 0,0 l/m 2 min 0 min 359 W/m 16,1 km/h (3 Bft) 97,87 %
16.09.2022 14:46 12,8 C 13,9 C 7,8 C 91 % 1011,4 hPa 0,0 l/m 0 min 0 min 265 W/m 3,2 km/h (1 Bft) 97,83 %
16.09.2022 14:48 12,9 C 13,9 C 7,8 C 91 % 1011,4 hPa 0,0 l/m 0 min 0 min 242 W/m 16,1 km/h (3 Bft) 95,74 %
16.09.2022 14:50 12,9 C 13,9 C 7,8 C 91 % 1011,5 hPa 0,0 l/m 0 min 0 min 258 W/m 6,4 km/h (2 Bft) 97,87 %
16.09.2022 14:52 12,9 C 13,9 C 7,8 C 91 % 1011,5 hPa 0,0 l/m 0 min 0 min 286 W/m 9,7 km/h (2 Bft) 95,74 %
16.09.2022 14:54 12,9 C 13,9 C 7,8 C 90 % 1011,4 hPa 0,0 l/m 2 min 0 min 347 W/m 9,7 km/h (2 Bft) 95,74 %
16.09.2022 14:56 13,1 C 13,9 C 7,8 C 90 % 1011,4 hPa 0,0 l/m 2 min 0 min 454 W/m 16,1 km/h (3 Bft) 97,87 %
16.09.2022 14:58 13,1 C 13,9 C 8,3 C 90 % 1011,4 hPa 0,0 l/m 2 min 0 min 455 W/m 12,9 km/h (3 Bft) 97,83 %
16.09.2022 15:00 13,2 C 14,4 C 7,8 C 90 % 1011,5 hPa 0,0 l/m 2 min 0 min 477 W/m 22,5 km/h (4 Bft) 97,87 %
16.09.2022 15:02 13,2 C 13,9 C 8,3 C 90 % 1011,4 hPa 0,0 l/m 0 min 0 min 278 W/m 12,9 km/h (3 Bft) 91,49 %
16.09.2022 15:04 13,3 C 13,9 C 8,3 C 90 % 1011,4 hPa 0,0 l/m 0 min 0 min 252 W/m 16,1 km/h (3 Bft) 97,87 %
16.09.2022 15:06 13,3 C 13,9 C 8,3 C 90 % 1011,5 hPa 0,0 l/m 0 min 0 min 258 W/m 12,9 km/h (3 Bft) 98,28 %
16.09.2022 15:08 13,3 C 13,9 C 8,3 C 90 % 1011,5 hPa 0,0 l/m 0 min 0 min 275 W/m 12,9 km/h (3 Bft) 100,00 %
16.09.2022 15:10 13,3 C 13,9 C 8,3 C 89 % 1011,5 hPa 0,0 l/m 2 min 0 min 303 W/m 16,1 km/h (3 Bft) 97,83 %
16.09.2022 15:12 13,3 C 13,9 C 8,3 C 89 % 1011,5 hPa 0,0 l/m 2 min 0 min 319 W/m 16,1 km/h (3 Bft) 97,87 %
16.09.2022 15:14 13,4 C 13,9 C 8,3 C 89 % 1011,5 hPa 0,0 l/m 2 min 0 min 378 W/m 16,1 km/h (3 Bft) 100,00 %
16.09.2022 15:16 13,4 C 13,9 C 8,3 C 88 % 1011,5 hPa 0,0 l/m 2 min 0 min 427 W/m 12,9 km/h (3 Bft) 97,87 %
16.09.2022 15:18 13,4 C 14,4 C 8,3 C 88 % 1011,5 hPa 0,0 l/m 2 min 0 min 412 W/m 25,7 km/h (4 Bft) 100,00 %
16.09.2022 15:20 13,5 C 14,4 C 8,3 C 88 % 1011,7 hPa 0,0 l/m 2 min 0 min 374 W/m 19,3 km/h (3 Bft) 97,87 %
16.09.2022 15:22 13,6 C 13,9 C 7,8 C 87 % 1011,5 hPa 0,0 l/m 2 min 0 min 408 W/m 32,2 km/h (5 Bft) 97,83 %
16.09.2022 15:24 13,6 C 13,9 C 8,3 C 87 % 1011,4 hPa 0,0 l/m 2 min 0 min 339 W/m 19,3 km/h (3 Bft) 97,87 %
16.09.2022 15:26 13,7 C 13,9 C 8,3 C 87 % 1011,4 hPa 0,0 l/m 2 min 0 min 297 W/m 16,1 km/h (3 Bft) 97,87 %
16.09.2022 15:28 13,7 C 13,9 C 8,3 C 87 % 1011,4 hPa 0,0 l/m 0 min 2 min 270 W/m 16,1 km/h (3 Bft) 97,87 %
16.09.2022 15:30 13,8 C 13,9 C 8,3 C 87 % 1011,4 hPa 0,0 l/m 0 min 2 min 256 W/m 19,3 km/h (3 Bft) 97,87 %
16.09.2022 15:32 13,7 C 13,9 C 8,3 C 87 % 1011,4 hPa 0,0 l/m 0 min 2 min 254 W/m 22,5 km/h (4 Bft) 97,87 %
16.09.2022 15:34 13,7 C 13,9 C 8,3 C 87 % 1011,3 hPa 0,0 l/m 0 min 2 min 276 W/m 19,3 km/h (3 Bft) 97,83 %
16.09.2022 15:36 13,7 C 13,9 C 8,3 C 87 % 1011,2 hPa 0,0 l/m 2 min 2 min 283 W/m 12,9 km/h (3 Bft) 97,96 %
16.09.2022 15:38 13,7 C 13,9 C 8,3 C 88 % 1011,3 hPa 0,0 l/m 2 min 2 min 372 W/m 16,1 km/h (3 Bft) 97,87 %
16.09.2022 15:40 13,7 C 13,9 C 8,3 C 88 % 1011,3 hPa 0,0 l/m 2 min 2 min 343 W/m 16,1 km/h (3 Bft) 93,62 %
16.09.2022 15:42 13,7 C 13,9 C 8,3 C 87 % 1011,3 hPa 0,0 l/m 0 min 0 min 245 W/m 22,5 km/h (4 Bft) 97,83 %
16.09.2022 15:44 13,7 C 13,3 C 7,8 C 87 % 1011,3 hPa 0,0 l/m 0 min 0 min 219 W/m 16,1 km/h (3 Bft) 97,87 %
16.09.2022 15:46 13,6 C 13,3 C 8,3 C 86 % 1011,3 hPa 0,0 l/m 0 min 2 min 199 W/m 16,1 km/h (3 Bft) 97,87 %
16.09.2022 15:48 13,6 C 13,3 C 8,3 C 86 % 1011,4 hPa 0,0 l/m 0 min 2 min 177 W/m 16,1 km/h (3 Bft) 97,87 %
16.09.2022 15:50 13,6 C 13,3 C 7,8 C 87 % 1011,4 hPa 0,0 l/m 0 min 2 min 160 W/m 16,1 km/h (3 Bft) 97,87 %
16.09.2022 15:52 13,4 C 12,8 C 7,8 C 86 % 1011,4 hPa 0,0 l/m 0 min 2 min 150 W/m 22,5 km/h (4 Bft) 97,87 %
16.09.2022 15:54 13,3 C 12,8 C 7,8 C 86 % 1011,4 hPa 0,0 l/m 0 min 2 min 144 W/m 16,1 km/h (3 Bft) 100,00 %
16.09.2022 15:56 13,3 C 12,8 C 7,8 C 87 % 1011,3 hPa 0,0 l/m 0 min 0 min 140 W/m 19,3 km/h (3 Bft) 100,00 %
16.09.2022 15:58 13,3 C 12,8 C 7,8 C 87 % 1011,3 hPa 0,0 l/m 0 min 2 min 148 W/m 16,1 km/h (3 Bft) 97,87 %
16.09.2022 16:00 13,2 C 12,8 C 7,8 C 87 % 1011,3 hPa 0,0 l/m 0 min 0 min 169 W/m 16,1 km/h (3 Bft) 100,00 %
16.09.2022 16:02 13,1 C 12,8 C 7,8 C 87 % 1011,4 hPa 0,0 l/m 0 min 0 min 168 W/m 19,3 km/h (3 Bft) 97,87 %
16.09.2022 16:04 13,0 C 12,8 C 7,2 C 87 % 1011,4 hPa 0,0 l/m 0 min 0 min 151 W/m 22,5 km/h (4 Bft) 95,74 %
16.09.2022 16:06 13,0 C 12,8 C 7,8 C 86 % 1011,4 hPa 0,0 l/m 0 min 0 min 134 W/m 19,3 km/h (3 Bft) 100,00 %
16.09.2022 16:08 12,9 C 12,8 C 7,8 C 87 % 1011,4 hPa 0,0 l/m 0 min 0 min 127 W/m 12,9 km/h (3 Bft) 100,00 %
16.09.2022 16:10 12,9 C 12,8 C 7,8 C 87 % 1011,4 hPa 0,0 l/m 0 min 0 min 129 W/m 19,3 km/h (3 Bft) 97,92 %
16.09.2022 16:12 12,9 C 12,8 C 7,8 C 87 % 1011,4 hPa 0,0 l/m 0 min 0 min 136 W/m 16,1 km/h (3 Bft) 97,87 %
16.09.2022 16:14 12,9 C 12,8 C 7,8 C 87 % 1011,4 hPa 0,0 l/m 0 min 0 min 144 W/m 12,9 km/h (3 Bft) 100,00 %
16.09.2022 16:16 12,9 C 12,8 C 7,8 C 87 % 1011,4 hPa 0,0 l/m 0 min 0 min 143 W/m 12,9 km/h (3 Bft) 97,87 %
16.09.2022 16:18 13,0 C 12,8 C 7,8 C 88 % 1011,3 hPa 0,0 l/m 2 min 0 min 255 W/m 12,9 km/h (3 Bft) 100,00 %
16.09.2022 16:20 13,1 C 13,3 C 7,8 C 88 % 1011,4 hPa 0,0 l/m 2 min 0 min 577 W/m 16,1 km/h (3 Bft) 97,87 %
16.09.2022 16:22 13,2 C 13,9 C 7,8 C 88 % 1011,4 hPa 0,0 l/m 2 min 0 min 569 W/m 19,3 km/h (3 Bft) 100,00 %
16.09.2022 16:24 13,3 C 13,9 C 8,3 C 87 % 1011,3 hPa 0,0 l/m 2 min 0 min 548 W/m 16,1 km/h (3 Bft) 97,87 %
16.09.2022 16:26 13,4 C 14,4 C 8,9 C 86 % 1011,4 hPa 0,0 l/m 2 min 0 min 467 W/m 16,1 km/h (3 Bft) 95,74 %
16.09.2022 16:28 13,6 C 14,4 C 8,9 C 85 % 1011,3 hPa 0,0 l/m 2 min 0 min 367 W/m 16,1 km/h (3 Bft) 97,87 %
16.09.2022 16:30 13,7 C 15,0 C 9,4 C 85 % 1011,3 hPa 0,0 l/m 2 min 0 min 513 W/m 16,1 km/h (3 Bft) 97,83 %
16.09.2022 16:32 13,8 C 14,4 C 9,4 C 84 % 1011,3 hPa 0,0 l/m 2 min 0 min 503 W/m 19,3 km/h (3 Bft) 97,87 %
16.09.2022 16:34 14,0 C 14,4 C 9,4 C 84 % 1011,4 hPa 0,0 l/m 2 min 0 min 496 W/m 19,3 km/h (3 Bft) 97,87 %
16.09.2022 16:36 14,2 C 14,4 C 9,4 C 83 % 1011,3 hPa 0,0 l/m 2 min 0 min 491 W/m 9,7 km/h (2 Bft) 95,74 %
16.09.2022 16:38 14,3 C 15,0 C 10,0 C 83 % 1011,2 hPa 0,0 l/m 2 min 0 min 487 W/m 12,9 km/h (3 Bft) 95,74 %
16.09.2022 16:40 14,4 C 15,0 C 10,0 C 82 % 1011,2 hPa 0,0 l/m 2 min 0 min 478 W/m 19,3 km/h (3 Bft) 97,87 %
16.09.2022 16:42 14,5 C 15,0 C 10,0 C 81 % 1011,2 hPa 0,0 l/m 2 min 0 min 468 W/m 16,1 km/h (3 Bft) 97,83 %
16.09.2022 16:44 14,6 C 15,0 C 10,0 C 80 % 1011,2 hPa 0,0 l/m 2 min 0 min 441 W/m 19,3 km/h (3 Bft) 97,87 %
16.09.2022 16:46 14,6 C 14,4 C 10,0 C 80 % 1011,3 hPa 0,0 l/m 2 min 0 min 287 W/m 22,5 km/h (4 Bft) 97,87 %
16.09.2022 16:48 14,6 C 14,4 C 10,0 C 79 % 1011,2 hPa 0,0 l/m 2 min 0 min 253 W/m 19,3 km/h (3 Bft) 97,87 %
16.09.2022 16:50 14,5 C 13,9 C 9,4 C 79 % 1011,2 hPa 0,0 l/m 0 min 0 min 155 W/m 16,1 km/h (3 Bft) 95,74 %
16.09.2022 16:52 14,4 C 13,9 C 9,4 C 79 % 1011,3 hPa 0,0 l/m 0 min 0 min 111 W/m 25,7 km/h (4 Bft) 97,87 %
16.09.2022 16:54 14,3 C 13,9 C 9,4 C 79 % 1011,3 hPa 0,0 l/m 0 min 0 min 122 W/m 16,1 km/h (3 Bft) 97,83 %
16.09.2022 16:56 14,3 C 13,9 C 9,4 C 79 % 1011,3 hPa 0,0 l/m 0 min 0 min 142 W/m 16,1 km/h (3 Bft) 97,87 %
16.09.2022 16:58 14,3 C 14,4 C 9,4 C 80 % 1011,3 hPa 0,0 l/m 0 min 0 min 189 W/m 19,3 km/h (3 Bft) 95,74 %
16.09.2022 17:00 14,2 C 13,9 C 9,4 C 80 % 1011,3 hPa 0,0 l/m 0 min 0 min 147 W/m 12,9 km/h (3 Bft) 95,74 %
16.09.2022 17:02 14,1 C 13,9 C 9,4 C 80 % 1011,5 hPa 0,0 l/m 0 min 0 min 134 W/m 22,5 km/h (4 Bft) 95,74 %
16.09.2022 17:04 14,0 C 13,9 C 9,4 C 81 % 1011,4 hPa 0,0 l/m 0 min 0 min 145 W/m 19,3 km/h (3 Bft) 97,87 %
16.09.2022 17:06 13,9 C 13,9 C 9,4 C 81 % 1011,3 hPa 0,0 l/m 0 min 0 min 171 W/m 16,1 km/h (3 Bft) 93,48 %
16.09.2022 17:08 14,0 C 14,4 C 9,4 C 82 % 1011,4 hPa 0,0 l/m 2 min 0 min 332 W/m 12,9 km/h (3 Bft) 93,62 %
16.09.2022 17:10 14,1 C 15,0 C 9,4 C 82 % 1011,3 hPa 0,0 l/m 2 min 0 min 312 W/m 12,9 km/h (3 Bft) 95,74 %
16.09.2022 17:12 14,1 C 16,1 C 10,0 C 83 % 1011,3 hPa 0,0 l/m 2 min 0 min 389 W/m 19,3 km/h (3 Bft) 93,62 %
16.09.2022 17:14 14,2 C 16,1 C 10,0 C 83 % 1011,4 hPa 0,0 l/m 2 min 0 min 434 W/m 16,1 km/h (3 Bft) 95,74 %
16.09.2022 17:16 14,3 C 16,7 C 10,0 C 83 % 1011,3 hPa 0,0 l/m 2 min 0 min 424 W/m 22,5 km/h (4 Bft) 95,74 %
16.09.2022 17:18 14,3 C 16,7 C 10,0 C 83 % 1011,5 hPa 0,0 l/m 2 min 0 min 398 W/m 22,5 km/h (4 Bft) 93,48 %
16.09.2022 17:20 14,3 C 16,7 C 10,0 C 83 % 1011,3 hPa 0,0 l/m 2 min 0 min 377 W/m 16,1 km/h (3 Bft) 95,74 %
16.09.2022 17:22 14,3 C 16,1 C 10,0 C 83 % 1011,4 hPa 0,0 l/m 2 min 0 min 346 W/m 16,1 km/h (3 Bft) 97,87 %
16.09.2022 17:24 14,3 C 16,1 C 10,0 C 82 % 1011,3 hPa 0,0 l/m 2 min 0 min 360 W/m 22,5 km/h (4 Bft) 95,74 %
16.09.2022 17:26 14,3 C 16,7 C 10,0 C 82 % 1011,2 hPa 0,0 l/m 2 min 0 min 349 W/m 16,1 km/h (3 Bft) 95,74 %
16.09.2022 17:28 14,3 C 16,1 C 10,0 C 83 % 1011,2 hPa 0,0 l/m 2 min 0 min 343 W/m 16,1 km/h (3 Bft) 95,65 %
16.09.2022 17:30 14,3 C 16,1 C 10,0 C 82 % 1011,2 hPa 0,0 l/m 2 min 0 min 327 W/m 9,7 km/h (2 Bft) 97,87 %
16.09.2022 17:32 14,3 C 16,1 C 10,0 C 82 % 1011,3 hPa 0,0 l/m 2 min 0 min 319 W/m 16,1 km/h (3 Bft) 97,87 %
16.09.2022 17:34 14,3 C 16,1 C 10,0 C 82 % 1011,3 hPa 0,0 l/m 2 min 0 min 316 W/m 22,5 km/h (4 Bft) 97,87 %
16.09.2022 17:36 14,2 C 16,1 C 10,0 C 82 % 1011,4 hPa 0,0 l/m 2 min 0 min 316 W/m 12,9 km/h (3 Bft) 95,74 %
16.09.2022 17:38 14,2 C 16,1 C 10,0 C 82 % 1011,2 hPa 0,0 l/m 2 min 0 min 336 W/m 16,1 km/h (3 Bft) 97,87 %
16.09.2022 17:40 14,2 C 16,7 C 10,0 C 82 % 1011,2 hPa 0,0 l/m 2 min 0 min 347 W/m 19,3 km/h (3 Bft) 95,65 %
16.09.2022 17:42 14,2 C 16,7 C 10,0 C 81 % 1011,1 hPa 0,0 l/m 2 min 0 min 340 W/m 16,1 km/h (3 Bft) 97,87 %
16.09.2022 17:44 14,3 C 16,7 C 10,0 C 82 % 1011,1 hPa 0,0 l/m 2 min 0 min 332 W/m 16,1 km/h (3 Bft) 95,74 %
16.09.2022 17:46 14,3 C 16,7 C 10,0 C 81 % 1011,1 hPa 0,0 l/m 2 min 0 min 325 W/m 22,5 km/h (4 Bft) 95,74 %
16.09.2022 17:48 14,3 C 16,7 C 10,0 C 81 % 1011,1 hPa 0,0 l/m 2 min 0 min 324 W/m 16,1 km/h (3 Bft) 97,87 %
16.09.2022 17:50 14,3 C 16,1 C 10,0 C 81 % 1011,0 hPa 0,0 l/m 2 min 0 min 304 W/m 12,9 km/h (3 Bft) 97,87 %
16.09.2022 17:52 14,3 C 15,6 C 10,0 C 81 % 1011,1 hPa 0,0 l/m 2 min 0 min 243 W/m 16,1 km/h (3 Bft) 95,74 %
16.09.2022 17:54 14,3 C 15,6 C 10,0 C 81 % 1011,0 hPa 0,0 l/m 2 min 0 min 266 W/m 12,9 km/h (3 Bft) 95,65 %
16.09.2022 17:56 14,3 C 15,0 C 10,0 C 81 % 1011,1 hPa 0,0 l/m 2 min 0 min 278 W/m 12,9 km/h (3 Bft) 97,87 %
16.09.2022 17:58 14,3 C 15,0 C 10,0 C 81 % 1011,1 hPa 0,0 l/m 2 min 0 min 277 W/m 16,1 km/h (3 Bft) 97,87 %
16.09.2022 18:00 14,3 C 15,0 C 10,0 C 82 % 1011,1 hPa 0,0 l/m 2 min 0 min 257 W/m 6,4 km/h (2 Bft) 97,87 %
16.09.2022 18:02 14,3 C 14,4 C 10,0 C 82 % 1011,2 hPa 0,0 l/m 2 min 0 min 241 W/m 12,9 km/h (3 Bft) 95,74 %
16.09.2022 18:04 14,3 C 14,4 C 10,0 C 81 % 1011,1 hPa 0,0 l/m 2 min 0 min 230 W/m 16,1 km/h (3 Bft) 97,83 %
16.09.2022 18:08 14,3 C 14,4 C 10,0 C 81 % 1011,1 hPa 0,0 l/m 4 min 0 min 215 W/m 16,1 km/h (3 Bft) 96,81 %
16.09.2022 18:10 14,3 C 14,4 C 10,0 C 82 % 1011,1 hPa 0,0 l/m 2 min 0 min 204 W/m 19,3 km/h (3 Bft) 97,87 %
16.09.2022 18:12 14,3 C 14,4 C 10,0 C 81 % 1011,1 hPa 0,0 l/m 2 min 0 min 198 W/m 12,9 km/h (3 Bft) 95,74 %
16.09.2022 18:14 14,3 C 14,4 C 10,0 C 81 % 1011,3 hPa 0,0 l/m 2 min 0 min 190 W/m 16,1 km/h (3 Bft) 97,87 %
16.09.2022 18:16 14,3 C 14,4 C 10,0 C 80 % 1011,2 hPa 0,0 l/m 2 min 0 min 181 W/m 16,1 km/h (3 Bft) 97,83 %
16.09.2022 18:18 14,3 C 14,4 C 10,6 C 80 % 1011,2 hPa 0,0 l/m 2 min 0 min 175 W/m 12,9 km/h (3 Bft) 97,87 %
16.09.2022 18:20 14,3 C 14,4 C 10,0 C 80 % 1011,2 hPa 0,0 l/m 2 min 0 min 167 W/m 16,1 km/h (3 Bft) 97,87 %
16.09.2022 18:22 14,3 C 14,4 C 10,6 C 81 % 1011,3 hPa 0,0 l/m 2 min 0 min 159 W/m 12,9 km/h (3 Bft) 100,00 %
16.09.2022 18:24 14,3 C 14,4 C 10,6 C 81 % 1011,3 hPa 0,0 l/m 2 min 0 min 153 W/m 12,9 km/h (3 Bft) 97,87 %
16.09.2022 18:26 14,3 C 14,4 C 10,0 C 81 % 1011,4 hPa 0,0 l/m 2 min 0 min 144 W/m 19,3 km/h (3 Bft) 97,87 %
16.09.2022 18:28 14,3 C 14,4 C 10,0 C 81 % 1011,4 hPa 0,0 l/m 2 min 0 min 137 W/m 16,1 km/h (3 Bft) 97,83 %
16.09.2022 18:30 14,2 C 14,4 C 10,0 C 81 % 1011,3 hPa 0,0 l/m 2 min 0 min 127 W/m 19,3 km/h (3 Bft) 100,00 %
16.09.2022 18:32 14,2 C 14,4 C 10,0 C 81 % 1011,3 hPa 0,0 l/m 2 min 0 min 121 W/m 16,1 km/h (3 Bft) 100,00 %
16.09.2022 18:34 14,2 C 14,4 C 10,0 C 82 % 1011,4 hPa 0,0 l/m 2 min 0 min 118 W/m 6,4 km/h (2 Bft) 100,00 %
16.09.2022 18:36 14,2 C 14,4 C 10,0 C 82 % 1011,4 hPa 0,0 l/m 2 min 0 min 113 W/m 12,9 km/h (3 Bft) 100,00 %
16.09.2022 18:38 14,2 C 14,4 C 10,0 C 82 % 1011,3 hPa 0,0 l/m 2 min 0 min 106 W/m 12,9 km/h (3 Bft) 100,00 %
16.09.2022 18:40 14,2 C 14,4 C 10,0 C 82 % 1011,4 hPa 0,0 l/m 2 min 0 min 100 W/m 16,1 km/h (3 Bft) 100,00 %
16.09.2022 18:42 14,1 C 13,9 C 10,0 C 81 % 1011,4 hPa 0,0 l/m 2 min 0 min 95 W/m 12,9 km/h (3 Bft) 100,00 %
16.09.2022 18:44 14,1 C 13,9 C 10,0 C 81 % 1011,4 hPa 0,0 l/m 2 min 0 min 90 W/m 19,3 km/h (3 Bft) 100,00 %
16.09.2022 18:46 14,1 C 13,9 C 10,0 C 82 % 1011,4 hPa 0,0 l/m 2 min 0 min 84 W/m 9,7 km/h (2 Bft) 100,00 %
16.09.2022 18:48 14,0 C 13,9 C 10,0 C 82 % 1011,4 hPa 0,0 l/m 2 min 0 min 78 W/m 12,9 km/h (3 Bft) 97,87 %
16.09.2022 18:50 14,0 C 13,9 C 9,4 C 82 % 1011,3 hPa 0,0 l/m 2 min 0 min 74 W/m 9,7 km/h (2 Bft) 100,00 %
16.09.2022 18:52 13,9 C 13,3 C 9,4 C 82 % 1011,3 hPa 0,0 l/m 2 min 0 min 72 W/m 12,9 km/h (3 Bft) 100,00 %
16.09.2022 18:54 13,9 C 13,3 C 9,4 C 82 % 1011,3 hPa 0,0 l/m 2 min 0 min 68 W/m 12,9 km/h (3 Bft) 100,00 %
16.09.2022 18:56 13,9 C 13,3 C 9,4 C 82 % 1011,3 hPa 0,0 l/m 0 min 0 min 56 W/m 12,9 km/h (3 Bft) 100,00 %
16.09.2022 18:58 13,8 C 13,3 C 9,4 C 82 % 1011,4 hPa 0,0 l/m 0 min 0 min 36 W/m 12,9 km/h (3 Bft) 100,00 %
16.09.2022 19:00 13,8 C 12,8 C 9,4 C 82 % 1011,4 hPa 0,0 l/m 0 min 0 min 35 W/m 12,9 km/h (3 Bft) 100,00 %
16.09.2022 19:02 13,7 C 12,8 C 9,4 C 82 % 1011,5 hPa 0,0 l/m 0 min 0 min 35 W/m 9,7 km/h (2 Bft) 100,00 %
16.09.2022 19:04 13,7 C 12,8 C 9,4 C 82 % 1011,5 hPa 0,0 l/m 0 min 0 min 33 W/m 16,1 km/h (3 Bft) 100,00 %
16.09.2022 19:06 13,6 C 12,8 C 9,4 C 82 % 1011,5 hPa 0,0 l/m 0 min 0 min 33 W/m 16,1 km/h (3 Bft) 100,00 %
16.09.2022 19:08 13,6 C 12,8 C 9,4 C 82 % 1011,5 hPa 0,0 l/m 0 min 0 min 34 W/m 16,1 km/h (3 Bft) 100,00 %
16.09.2022 19:10 13,6 C 12,8 C 9,4 C 82 % 1011,5 hPa 0,0 l/m 0 min 0 min 31 W/m 16,1 km/h (3 Bft) 97,87 %
16.09.2022 19:12 13,6 C 12,8 C 9,4 C 82 % 1011,5 hPa 0,0 l/m 0 min 0 min 28 W/m 9,7 km/h (2 Bft) 97,87 %
16.09.2022 19:14 13,5 C 12,8 C 9,4 C 82 % 1011,5 hPa 0,0 l/m 0 min 0 min 25 W/m 12,9 km/h (3 Bft) 100,00 %
16.09.2022 19:16 13,5 C 12,8 C 9,4 C 83 % 1011,5 hPa 0,0 l/m 0 min 0 min 22 W/m 9,7 km/h (2 Bft) 100,00 %
16.09.2022 19:18 13,4 C 12,8 C 9,4 C 83 % 1011,5 hPa 0,0 l/m 0 min 0 min 18 W/m 9,7 km/h (2 Bft) 97,83 %
16.09.2022 19:20 13,4 C 12,8 C 8,9 C 83 % 1011,6 hPa 0,0 l/m 0 min 0 min 14 W/m 12,9 km/h (3 Bft) 100,00 %
16.09.2022 19:22 13,3 C 12,2 C 8,9 C 83 % 1011,6 hPa 0,0 l/m 0 min 0 min 12 W/m 9,7 km/h (2 Bft) 100,00 %
16.09.2022 19:24 13,3 C 12,2 C 8,9 C 83 % 1011,6 hPa 0,0 l/m 0 min 0 min 11 W/m 16,1 km/h (3 Bft) 95,74 %
16.09.2022 19:26 13,3 C 12,2 C 8,9 C 83 % 1011,6 hPa 0,0 l/m 0 min 0 min 10 W/m 6,4 km/h (2 Bft) 100,00 %
16.09.2022 19:28 13,2 C 12,2 C 8,9 C 84 % 1011,7 hPa 0,0 l/m 0 min 0 min 9 W/m 12,9 km/h (3 Bft) 97,87 %
16.09.2022 19:30 13,2 C 12,2 C 8,9 C 84 % 1011,7 hPa 0,0 l/m 0 min 0 min 9 W/m 6,4 km/h (2 Bft) 97,83 %
16.09.2022 19:32 13,2 C 12,2 C 8,9 C 84 % 1011,7 hPa 0,0 l/m 0 min 0 min 8 W/m 9,7 km/h (2 Bft) 97,87 %
16.09.2022 19:34 13,2 C 12,2 C 8,9 C 84 % 1011,7 hPa 0,0 l/m 0 min 0 min 7 W/m 6,4 km/h (2 Bft) 95,74 %
16.09.2022 19:36 13,1 C 12,2 C 8,9 C 85 % 1011,7 hPa 0,0 l/m 0 min 0 min 7 W/m 12,9 km/h (3 Bft) 97,87 %
16.09.2022 19:38 13,1 C 12,2 C 8,9 C 84 % 1011,7 hPa 0,0 l/m 0 min 0 min 5 W/m 16,1 km/h (3 Bft) 95,74 %
16.09.2022 19:40 13,0 C 12,2 C 8,9 C 85 % 1011,7 hPa 0,0 l/m 0 min 0 min 5 W/m 12,9 km/h (3 Bft) 93,62 %
16.09.2022 19:42 13,0 C 12,2 C 8,9 C 85 % 1011,7 hPa 0,0 l/m 0 min 0 min 5 W/m 9,7 km/h (2 Bft) 95,65 %
16.09.2022 19:44 12,9 C 12,2 C 8,9 C 85 % 1011,7 hPa 0,0 l/m 0 min 0 min 4 W/m 12,9 km/h (3 Bft) 95,74 %
16.09.2022 19:46 12,9 C 12,2 C 8,9 C 85 % 1011,7 hPa 0,0 l/m 0 min 0 min 0 W/m 9,7 km/h (2 Bft) 95,74 %
16.09.2022 19:48 12,9 C 12,2 C 8,9 C 85 % 1011,7 hPa 0,0 l/m 0 min 0 min 0 W/m 12,9 km/h (3 Bft) 95,74 %
16.09.2022 19:50 12,8 C 12,2 C 8,9 C 86 % 1011,7 hPa 0,0 l/m 0 min 0 min 0 W/m 9,7 km/h (2 Bft) 91,49 %
16.09.2022 19:52 12,8 C 11,7 C 8,3 C 86 % 1011,8 hPa 0,0 l/m 0 min 0 min 0 W/m 12,9 km/h (3 Bft) 95,65 %
16.09.2022 19:54 12,8 C 11,7 C 8,3 C 86 % 1011,7 hPa 0,0 l/m 0 min 0 min 0 W/m 6,4 km/h (2 Bft) 95,74 %
16.09.2022 19:56 12,7 C 11,7 C 8,3 C 86 % 1011,8 hPa 0,0 l/m 0 min 0 min 0 W/m 12,9 km/h (3 Bft) 93,62 %
16.09.2022 19:58 12,7 C 11,7 C 8,3 C 86 % 1011,8 hPa 0,0 l/m 0 min 0 min 0 W/m 12,9 km/h (3 Bft) 91,49 %
16.09.2022 20:00 12,7 C 11,7 C 8,3 C 86 % 1011,9 hPa 0,0 l/m 0 min 0 min 0 W/m 12,9 km/h (3 Bft) 93,62 %
16.09.2022 20:02 12,7 C 11,7 C 8,3 C 86 % 1011,9 hPa 0,0 l/m 0 min 0 min 0 W/m 12,9 km/h (3 Bft) 91,49 %
16.09.2022 20:04 12,6 C 11,7 C 8,3 C 86 % 1011,8 hPa 0,0 l/m 0 min 0 min 0 W/m 9,7 km/h (2 Bft) 93,48 %
16.09.2022 20:06 12,6 C 11,7 C 8,3 C 86 % 1011,9 hPa 0,0 l/m 0 min 0 min 0 W/m 12,9 km/h (3 Bft) 95,74 %
16.09.2022 20:08 12,6 C 11,7 C 8,3 C 86 % 1011,9 hPa 0,0 l/m 0 min 0 min 0 W/m 12,9 km/h (3 Bft) 93,62 %
16.09.2022 20:10 12,6 C 11,7 C 8,3 C 86 % 1012,0 hPa 0,0 l/m 0 min 0 min 0 W/m 12,9 km/h (3 Bft) 93,62 %
16.09.2022 20:12 12,6 C 11,7 C 8,3 C 86 % 1012,0 hPa 0,0 l/m 0 min 0 min 0 W/m 12,9 km/h (3 Bft) 93,62 %
16.09.2022 20:14 12,6 C 11,7 C 8,3 C 86 % 1012,0 hPa 0,0 l/m 0 min 0 min 0 W/m 12,9 km/h (3 Bft) 91,49 %
16.09.2022 20:16 12,6 C 11,7 C 8,9 C 86 % 1012,0 hPa 0,0 l/m 0 min 0 min 0 W/m 9,7 km/h (2 Bft) 93,48 %
16.09.2022 20:18 12,6 C 11,7 C 8,9 C 86 % 1012,0 hPa 0,0 l/m 0 min 0 min 0 W/m 12,9 km/h (3 Bft) 93,62 %
16.09.2022 20:20 12,6 C 12,2 C 8,9 C 85 % 1012,0 hPa 0,0 l/m 0 min 0 min 0 W/m 12,9 km/h (3 Bft) 93,62 %
16.09.2022 20:22 12,6 C 12,2 C 8,9 C 85 % 1012,1 hPa 0,0 l/m 0 min 0 min 0 W/m 12,9 km/h (3 Bft) 97,87 %
16.09.2022 20:24 12,6 C 11,7 C 8,9 C 85 % 1012,0 hPa 0,0 l/m 0 min 0 min 0 W/m 9,7 km/h (2 Bft) 97,87 %
16.09.2022 20:26 12,6 C 11,7 C 8,9 C 85 % 1012,0 hPa 0,0 l/m 0 min 0 min 0 W/m 6,4 km/h (2 Bft) 95,74 %
16.09.2022 20:28 12,6 C 11,7 C 8,3 C 85 % 1012,0 hPa 0,0 l/m 0 min 0 min 0 W/m 6,4 km/h (2 Bft) 97,83 %
16.09.2022 20:30 12,6 C 11,7 C 8,3 C 84 % 1012,1 hPa 0,0 l/m 0 min 0 min 0 W/m 12,9 km/h (3 Bft) 100,00 %
16.09.2022 20:32 12,6 C 11,7 C 8,3 C 84 % 1012,0 hPa 0,0 l/m 0 min 0 min 0 W/m 6,4 km/h (2 Bft) 100,00 %
16.09.2022 20:34 12,6 C 11,7 C 8,3 C 84 % 1012,1 hPa 0,0 l/m 0 min 0 min 0 W/m 9,7 km/h (2 Bft) 100,00 %
16.09.2022 20:36 12,5 C 11,7 C 8,3 C 84 % 1012,1 hPa 0,0 l/m 0 min 0 min 0 W/m 9,7 km/h (2 Bft) 100,00 %
16.09.2022 20:38 12,5 C 11,7 C 8,3 C 84 % 1012,1 hPa 0,0 l/m 0 min 0 min 0 W/m 9,7 km/h (2 Bft) 100,00 %
16.09.2022 20:40 12,5 C 11,7 C 8,3 C 84 % 1012,1 hPa 0,0 l/m 0 min 0 min 0 W/m 6,4 km/h (2 Bft) 100,00 %
16.09.2022 20:42 12,5 C 11,7 C 8,3 C 84 % 1012,2 hPa 0,0 l/m 0 min 0 min 0 W/m 12,9 km/h (3 Bft) 100,00 %
16.09.2022 20:44 12,4 C 11,7 C 8,3 C 84 % 1012,2 hPa 0,0 l/m 0 min 0 min 0 W/m 6,4 km/h (2 Bft) 95,74 %
16.09.2022 20:46 12,4 C 11,7 C 8,3 C 84 % 1012,2 hPa 0,0 l/m 0 min 0 min 0 W/m 12,9 km/h (3 Bft) 100,00 %
16.09.2022 20:48 12,4 C 11,7 C 8,3 C 84 % 1012,3 hPa 0,0 l/m 0 min 0 min 0 W/m 6,4 km/h (2 Bft) 100,00 %
16.09.2022 20:50 12,4 C 11,7 C 8,3 C 84 % 1012,3 hPa 0,0 l/m 0 min 0 min 0 W/m 9,7 km/h (2 Bft) 100,00 %
16.09.2022 20:52 12,4 C 11,7 C 8,3 C 84 % 1012,3 hPa 0,0 l/m 0 min 0 min 0 W/m 6,4 km/h (2 Bft) 100,00 %
16.09.2022 20:54 12,4 C 11,7 C 8,3 C 84 % 1012,3 hPa 0,0 l/m 0 min 0 min 0 W/m 9,7 km/h (2 Bft) 100,00 %
16.09.2022 20:56 12,3 C 11,7 C 8,3 C 85 % 1012,3 hPa 0,0 l/m 0 min 0 min 0 W/m 3,2 km/h (1 Bft) 97,87 %
16.09.2022 20:58 12,3 C 11,7 C 8,3 C 85 % 1012,3 hPa 0,0 l/m 0 min 0 min 0 W/m 3,2 km/h (1 Bft) 97,87 %
16.09.2022 21:00 12,3 C 11,1 C 8,3 C 85 % 1012,3 hPa 0,0 l/m 0 min 0 min 0 W/m 6,4 km/h (2 Bft) 100,00 %
16.09.2022 21:02 12,3 C 11,1 C 7,8 C 85 % 1012,3 hPa 0,0 l/m 0 min 0 min 0 W/m 9,7 km/h (2 Bft) 95,74 %
16.09.2022 21:04 12,2 C 11,1 C 7,8 C 86 % 1012,3 hPa 0,0 l/m 0 min 0 min 0 W/m 12,9 km/h (3 Bft) 100,00 %
16.09.2022 21:06 12,1 C 11,1 C 7,8 C 86 % 1012,3 hPa 0,0 l/m 0 min 0 min 0 W/m 12,9 km/h (3 Bft) 97,87 %
16.09.2022 21:08 12,1 C 11,1 C 7,8 C 85 % 1012,3 hPa 0,0 l/m 0 min 0 min 0 W/m 16,1 km/h (3 Bft) 100,00 %
16.09.2022 21:10 12,0 C 11,1 C 7,8 C 85 % 1012,3 hPa 0,0 l/m 0 min 0 min 0 W/m 12,9 km/h (3 Bft) 100,00 %
16.09.2022 21:12 11,9 C 11,1 C 7,8 C 85 % 1012,2 hPa 0,0 l/m 0 min 0 min 0 W/m 16,1 km/h (3 Bft) 97,87 %
16.09.2022 21:14 11,9 C 11,1 C 7,8 C 85 % 1012,2 hPa 0,0 l/m 0 min 0 min 0 W/m 16,1 km/h (3 Bft) 100,00 %
16.09.2022 21:16 11,9 C 11,1 C 7,8 C 85 % 1012,2 hPa 0,0 l/m 0 min 0 min 0 W/m 12,9 km/h (3 Bft) 100,00 %
16.09.2022 21:18 11,8 C 11,1 C 7,8 C 85 % 1012,2 hPa 0,0 l/m 0 min 0 min 0 W/m 12,9 km/h (3 Bft) 100,00 %
16.09.2022 21:20 11,8 C 11,1 C 7,8 C 85 % 1012,3 hPa 0,0 l/m 0 min 0 min 0 W/m 12,9 km/h (3 Bft) 100,00 %
16.09.2022 21:22 11,7 C 11,1 C 7,8 C 85 % 1012,3 hPa 0,0 l/m 0 min 0 min 0 W/m 12,9 km/h (3 Bft) 100,00 %
16.09.2022 21:24 11,7 C 10,6 C 7,8 C 85 % 1012,3 hPa 0,0 l/m 0 min 0 min 0 W/m 19,3 km/h (3 Bft) 100,00 %
16.09.2022 21:26 11,6 C 10,6 C 7,8 C 85 % 1012,3 hPa 0,0 l/m 0 min 0 min 0 W/m 16,1 km/h (3 Bft) 100,00 %
16.09.2022 21:28 11,6 C 10,6 C 7,8 C 85 % 1012,3 hPa 0,0 l/m 0 min 0 min 0 W/m 12,9 km/h (3 Bft) 97,83 %
16.09.2022 21:30 11,6 C 10,6 C 7,2 C 85 % 1012,3 hPa 0,0 l/m 0 min 0 min 0 W/m 16,1 km/h (3 Bft) 100,00 %
16.09.2022 21:32 11,5 C 10,6 C 7,2 C 85 % 1012,3 hPa 0,0 l/m 0 min 0 min 0 W/m 12,9 km/h (3 Bft) 97,87 %
16.09.2022 21:34 11,5 C 10,6 C 7,2 C 85 % 1012,2 hPa 0,0 l/m 0 min 0 min 0 W/m 9,7 km/h (2 Bft) 100,00 %
16.09.2022 21:36 11,4 C 10,6 C 7,2 C 85 % 1012,3 hPa 0,0 l/m 0 min 0 min 0 W/m 12,9 km/h (3 Bft) 97,87 %
16.09.2022 21:38 11,4 C 10,6 C 7,2 C 85 % 1012,3 hPa 0,0 l/m 0 min 0 min 0 W/m 9,7 km/h (2 Bft) 100,00 %
16.09.2022 21:40 11,4 C 10,6 C 7,2 C 86 % 1012,3 hPa 0,0 l/m 0 min 0 min 0 W/m 16,1 km/h (3 Bft) 100,00 %
16.09.2022 21:42 11,4 C 10,6 C 7,2 C 86 % 1012,3 hPa 0,0 l/m 0 min 0 min 0 W/m 12,9 km/h (3 Bft) 97,87 %
16.09.2022 21:44 11,3 C 10,6 C 7,2 C 86 % 1012,3 hPa 0,0 l/m 0 min 0 min 0 W/m 16,1 km/h (3 Bft) 95,74 %
16.09.2022 21:46 11,3 C 10,6 C 7,2 C 86 % 1012,3 hPa 0,0 l/m 0 min 0 min 0 W/m 12,9 km/h (3 Bft) 97,87 %
16.09.2022 21:48 11,3 C 10,6 C 7,2 C 86 % 1012,3 hPa 0,0 l/m 0 min 0 min 0 W/m 9,7 km/h (2 Bft) 97,87 %
16.09.2022 21:50 11,2 C 10,6 C 7,2 C 86 % 1012,4 hPa 0,0 l/m 0 min 0 min 0 W/m 6,4 km/h (2 Bft) 97,87 %
16.09.2022 21:52 11,2 C 10,6 C 7,2 C 86 % 1012,3 hPa 0,0 l/m 0 min 0 min 0 W/m 6,4 km/h (2 Bft) 97,83 %
16.09.2022 21:54 11,2 C 10,6 C 7,2 C 86 % 1012,3 hPa 0,0 l/m 0 min 0 min 0 W/m 6,4 km/h (2 Bft) 95,74 %
16.09.2022 21:56 11,2 C 10,0 C 7,2 C 86 % 1012,4 hPa 0,0 l/m 0 min 0 min 0 W/m 16,1 km/h (3 Bft) 97,87 %
16.09.2022 21:58 11,1 C 10,0 C 7,2 C 86 % 1012,4 hPa 0,0 l/m 0 min 0 min 0 W/m 9,7 km/h (2 Bft) 95,74 %
16.09.2022 22:00 11,1 C 10,0 C 7,2 C 87 % 1012,4 hPa 0,0 l/m 0 min 0 min 0 W/m 12,9 km/h (3 Bft) 97,87 %
16.09.2022 22:02 11,1 C 10,0 C 7,2 C 87 % 1012,4 hPa 0,0 l/m 0 min 0 min 0 W/m 6,4 km/h (2 Bft) 93,62 %
16.09.2022 22:04 11,1 C 10,0 C 7,2 C 87 % 1012,3 hPa 0,0 l/m 0 min 0 min 0 W/m 6,4 km/h (2 Bft) 97,83 %
16.09.2022 22:06 11,0 C 10,0 C 7,2 C 87 % 1012,4 hPa 0,0 l/m 0 min 0 min 0 W/m 12,9 km/h (3 Bft) 97,87 %
16.09.2022 22:08 10,9 C 10,0 C 6,7 C 87 % 1012,4 hPa 0,0 l/m 0 min 0 min 0 W/m 9,7 km/h (2 Bft) 95,74 %
16.09.2022 22:10 10,9 C 10,0 C 7,2 C 87 % 1012,4 hPa 0,0 l/m 0 min 0 min 0 W/m 12,9 km/h (3 Bft) 91,49 %
16.09.2022 22:12 10,9 C 10,0 C 6,7 C 87 % 1012,3 hPa 0,0 l/m 0 min 0 min 0 W/m 12,9 km/h (3 Bft) 95,74 %
16.09.2022 22:14 10,8 C 10,0 C 6,7 C 88 % 1012,3 hPa 0,0 l/m 0 min 0 min 0 W/m 12,9 km/h (3 Bft) 93,62 %
16.09.2022 22:16 10,8 C 10,0 C 6,7 C 88 % 1012,4 hPa 0,0 l/m 0 min 0 min 0 W/m 12,9 km/h (3 Bft) 97,83 %
16.09.2022 22:18 10,8 C 10,0 C 6,7 C 88 % 1012,3 hPa 0,0 l/m 0 min 0 min 0 W/m 16,1 km/h (3 Bft) 97,87 %
16.09.2022 22:20 10,8 C 10,0 C 6,7 C 88 % 1012,4 hPa 0,0 l/m 0 min 0 min 0 W/m 9,7 km/h (2 Bft) 97,87 %
16.09.2022 22:22 10,8 C 10,0 C 6,7 C 88 % 1012,4 hPa 0,0 l/m 0 min 0 min 0 W/m 12,9 km/h (3 Bft) 97,87 %
16.09.2022 22:24 10,8 C 10,0 C 7,2 C 88 % 1012,4 hPa 0,0 l/m 0 min 0 min 0 W/m 16,1 km/h (3 Bft) 97,87 %
16.09.2022 22:26 10,8 C 10,0 C 7,2 C 88 % 1012,4 hPa 0,0 l/m 0 min 0 min 0 W/m 6,4 km/h (2 Bft) 97,87 %
16.09.2022 22:28 10,8 C 10,0 C 7,2 C 88 % 1012,5 hPa 0,0 l/m 0 min 0 min 0 W/m 16,1 km/h (3 Bft) 97,83 %
16.09.2022 22:30 10,8 C 10,0 C 7,2 C 88 % 1012,5 hPa 0,0 l/m 0 min 0 min 0 W/m 19,3 km/h (3 Bft) 95,74 %
16.09.2022 22:32 10,8 C 10,0 C 7,2 C 88 % 1012,6 hPa 0,0 l/m 0 min 0 min 0 W/m 12,9 km/h (3 Bft) 97,87 %
16.09.2022 22:34 10,8 C 10,6 C 7,2 C 88 % 1012,6 hPa 0,0 l/m 0 min 0 min 0 W/m 12,9 km/h (3 Bft) 93,62 %
16.09.2022 22:36 10,8 C 10,6 C 7,2 C 88 % 1012,6 hPa 0,0 l/m 0 min 0 min 0 W/m 12,9 km/h (3 Bft) 93,62 %
16.09.2022 22:38 10,9 C 10,6 C 7,2 C 88 % 1012,6 hPa 0,0 l/m 0 min 0 min 0 W/m 16,1 km/h (3 Bft) 95,74 %
16.09.2022 22:40 10,8 C 10,0 C 7,2 C 88 % 1012,7 hPa 0,0 l/m 0 min 0 min 0 W/m 12,9 km/h (3 Bft) 95,65 %
16.09.2022 22:42 10,8 C 10,0 C 7,2 C 88 % 1012,6 hPa 0,0 l/m 0 min 0 min 0 W/m 12,9 km/h (3 Bft) 95,74 %
16.09.2022 22:44 10,8 C 10,0 C 7,2 C 88 % 1012,6 hPa 0,0 l/m 0 min 0 min 0 W/m 9,7 km/h (2 Bft) 93,62 %
16.09.2022 22:46 10,8 C 10,0 C 7,2 C 88 % 1012,6 hPa 0,0 l/m 0 min 0 min 0 W/m 6,4 km/h (2 Bft) 95,74 %
16.09.2022 22:48 10,8 C 10,0 C 7,2 C 88 % 1012,6 hPa 0,0 l/m 0 min 0 min 0 W/m 16,1 km/h (3 Bft) 95,74 %
16.09.2022 22:50 10,8 C 10,0 C 7,2 C 88 % 1012,7 hPa 0,0 l/m 0 min 0 min 0 W/m 12,9 km/h (3 Bft) 93,62 %
16.09.2022 22:52 10,8 C 10,0 C 7,2 C 88 % 1012,7 hPa 0,0 l/m 0 min 0 min 0 W/m 6,4 km/h (2 Bft) 93,48 %
16.09.2022 22:54 10,8 C 10,0 C 7,2 C 89 % 1012,8 hPa 0,0 l/m 0 min 0 min 0 W/m 12,9 km/h (3 Bft) 95,74 %
16.09.2022 22:56 10,8 C 10,0 C 7,2 C 89 % 1012,8 hPa 0,0 l/m 0 min 0 min 0 W/m 12,9 km/h (3 Bft) 95,74 %
16.09.2022 22:58 10,8 C 10,0 C 7,2 C 89 % 1012,8 hPa 0,0 l/m 0 min 0 min 0 W/m 9,7 km/h (2 Bft) 97,87 %
16.09.2022 23:00 10,7 C 10,0 C 7,2 C 89 % 1012,8 hPa 0,0 l/m 0 min 0 min 0 W/m 16,1 km/h (3 Bft) 95,74 %
16.09.2022 23:02 10,7 C 10,0 C 7,2 C 89 % 1012,8 hPa 0,0 l/m 0 min 0 min 0 W/m 9,7 km/h (2 Bft) 97,87 %
16.09.2022 23:04 10,7 C 10,0 C 6,7 C 89 % 1012,8 hPa 0,0 l/m 0 min 0 min 0 W/m 12,9 km/h (3 Bft) 95,65 %
16.09.2022 23:06 10,7 C 10,0 C 6,7 C 89 % 1012,8 hPa 0,0 l/m 0 min 0 min 0 W/m 6,4 km/h (2 Bft) 95,74 %
16.09.2022 23:08 10,7 C 10,0 C 6,7 C 89 % 1012,9 hPa 0,0 l/m 0 min 0 min 0 W/m 12,9 km/h (3 Bft) 97,87 %
16.09.2022 23:10 10,7 C 10,0 C 6,7 C 89 % 1012,8 hPa 0,0 l/m 0 min 0 min 0 W/m 12,9 km/h (3 Bft) 97,87 %
16.09.2022 23:12 10,7 C 10,0 C 6,7 C 89 % 1012,8 hPa 0,0 l/m 0 min 0 min 0 W/m 9,7 km/h (2 Bft) 97,87 %
16.09.2022 23:14 10,7 C 10,0 C 6,7 C 89 % 1012,8 hPa 0,0 l/m 0 min 0 min 0 W/m 12,9 km/h (3 Bft) 95,65 %
16.09.2022 23:16 10,7 C 10,0 C 6,7 C 89 % 1012,8 hPa 0,0 l/m 0 min 0 min 0 W/m 12,9 km/h (3 Bft) 97,87 %
16.09.2022 23:18 10,7 C 10,0 C 6,7 C 89 % 1012,9 hPa 0,0 l/m 0 min 0 min 0 W/m 6,4 km/h (2 Bft) 97,87 %
16.09.2022 23:20 10,6 C 10,0 C 6,7 C 89 % 1012,9 hPa 0,0 l/m 0 min 0 min 0 W/m 12,9 km/h (3 Bft) 97,87 %
16.09.2022 23:22 10,6 C 10,0 C 6,7 C 89 % 1012,9 hPa 0,0 l/m 0 min 0 min 0 W/m 9,7 km/h (2 Bft) 95,74 %
16.09.2022 23:24 10,6 C 10,0 C 6,7 C 89 % 1012,9 hPa 0,0 l/m 0 min 0 min 0 W/m 19,3 km/h (3 Bft) 97,87 %
16.09.2022 23:26 10,6 C 10,0 C 6,7 C 89 % 1012,9 hPa 0,0 l/m 0 min 0 min 0 W/m 16,1 km/h (3 Bft) 95,65 %
16.09.2022 23:28 10,6 C 10,0 C 6,7 C 89 % 1012,8 hPa 0,0 l/m 0 min 0 min 0 W/m 16,1 km/h (3 Bft) 97,87 %
16.09.2022 23:30 10,6 C 10,0 C 6,7 C 89 % 1012,9 hPa 0,0 l/m 0 min 0 min 0 W/m 12,9 km/h (3 Bft) 95,74 %
16.09.2022 23:32 10,6 C 10,0 C 6,7 C 89 % 1012,9 hPa 0,0 l/m 0 min 0 min 0 W/m 9,7 km/h (2 Bft) 95,74 %
16.09.2022 23:34 10,6 C 10,0 C 6,7 C 89 % 1012,9 hPa 0,0 l/m 0 min 0 min 0 W/m 16,1 km/h (3 Bft) 95,74 %
16.09.2022 23:36 10,6 C 10,0 C 6,7 C 89 % 1012,9 hPa 0,0 l/m 0 min 0 min 0 W/m 6,4 km/h (2 Bft) 95,74 %
16.09.2022 23:38 10,6 C 10,0 C 6,7 C 89 % 1013,0 hPa 0,0 l/m 0 min 0 min 0 W/m 16,1 km/h (3 Bft) 97,83 %
16.09.2022 23:40 10,5 C 10,0 C 6,7 C 89 % 1012,9 hPa 0,0 l/m 0 min 0 min 0 W/m 12,9 km/h (3 Bft) 97,87 %
16.09.2022 23:42 10,5 C 10,0 C 6,7 C 89 % 1013,0 hPa 0,0 l/m 0 min 0 min 0 W/m 16,1 km/h (3 Bft) 95,74 %
16.09.2022 23:44 10,5 C 10,0 C 6,7 C 89 % 1013,0 hPa 0,0 l/m 0 min 0 min 0 W/m 12,9 km/h (3 Bft) 95,74 %
16.09.2022 23:46 10,4 C 10,0 C 6,7 C 89 % 1012,9 hPa 0,0 l/m 0 min 0 min 0 W/m 12,9 km/h (3 Bft) 97,87 %
16.09.2022 23:48 10,4 C 10,0 C 6,7 C 89 % 1013,0 hPa 0,0 l/m 0 min 0 min 0 W/m 6,4 km/h (2 Bft) 97,87 %
16.09.2022 23:50 10,4 C 10,0 C 6,7 C 90 % 1013,0 hPa 0,0 l/m 0 min 0 min 0 W/m 9,7 km/h (2 Bft) 97,83 %
16.09.2022 23:52 10,4 C 10,0 C 6,7 C 90 % 1013,0 hPa 0,0 l/m 0 min 0 min 0 W/m 9,7 km/h (2 Bft) 97,87 %
16.09.2022 23:54 10,4 C 10,0 C 6,7 C 90 % 1013,1 hPa 0,0 l/m 0 min 0 min 0 W/m 16,1 km/h (3 Bft) 95,74 %
16.09.2022 23:56 10,5 C 10,0 C 6,7 C 90 % 1013,1 hPa 0,0 l/m 0 min 0 min 0 W/m 16,1 km/h (3 Bft) 95,74 %
16.09.2022 23:58 10,5 C 10,0 C 6,7 C 90 % 1013,0 hPa 0,0 l/m 0 min 0 min 0 W/m 9,7 km/h (2 Bft) 100,00 %
_ Min-Zeit 23:46 21:56 13:36 11:44 07:02 - - - - 02:26 05:54
Minimum _ 10,4 C 10,0 C 6,7 C 76 % 1010,4 hPa - - - - 0,0 km/h (0 Bft) 51,16 %
_ Max-Zeit 11:32 11:06 11:28 06:02 23:54 12:42 18:08 04:12 11:02 13:28 00:14
Maximum _ 15,5 C 16,7 C 12,2 C 94 % 1013,1 hPa 0,8 l/m 4 min 2 min 599 W/m 38,6 km/h
O (5 Bft)
100,00 %
Durchschnitt _ 12,9 C 12,5 C 8,8 C 87 % 1011,3 hPa #3,8 l/m #3:20 h #1:24 h 168 W/m 10,6 km/h (2 Bft) 97,40 %
© 2022 W. Hausmann